PORTS® Data Listing: 8770777 Manchester, TX

CO-OPS RAW PORTS DATA

************************      PRELIMINARY DATA      ************************** 

     THIS RAW DATA HAS NOT BEEN SUBJECT TO THE NATIONAL OCEAN SERVICE'S        
     QUALITY CONTROL OR QUALITY ASSURANCE PROCEDURES AND DOES NOT MEET         
     THE CRITERIA AND STANDARDS OF OFFICIAL NATIONAL OCEAN SERVICE             
     DATA.  IT IS RELEASED FOR LIMITED PUBLIC USE AS PRELIMINARY DATA TO       
     BE USED ONLY WITH APPROPRIATE CAUTION.                                    

************************      PRELIMINARY DATA      ************************** 


       CD   -   Calendar date
       T    -   Time
       TZ   -   Timezone
       PW   -   Predicted water level (feet above MLLW)
       OW   -   Observed water level (feet above MLLW)
       WS   -   Wind speed (knots)
       WD   -   Wind direction (degrees true)
       WG   -   Wind gust (knots)
       AT   -   Air temperature (degrees farenheit)
       WT   -   Water temperature (degrees farenheit)
       AP   -   Air pressure (millibars)
       SA   -   Salinty (PSU - Practical Salinity Units)
       SG   -   Specific gravity
       RH   -   Relative humidity
       AG   -   Air gap (feet)
       VI   -   Visibility (nautical miles)

       ** NOTE **
       A variable that has its data fields filled with "9"s, indicates that
       data was not collected for that sample period.
       **********


STATION NAME: Manchester (8770777)
****************************************************************************************************
    CD       T    TZ    PW     OW    WS   WD   WG    AT    WT    AP    SA    SG     RH    AG   VI
****************************************************************************************************
2019/12/10 21:12 CST    1.47   0.93   11    6   14  48.6  65.3 1027.5 -9.9 -9.999 -99.9 -99.99 -9.99
2019/12/10 21:18 CST    1.47   0.95   12    8   18  48.4  65.3 1027.6 -9.9 -9.999 -99.9 -99.99 -9.99
2019/12/10 21:24 CST    1.47   0.96   12    7   16  48.4  65.3 1027.8 -9.9 -9.999 -99.9 -99.99 -9.99
2019/12/10 21:30 CST    1.47   0.96   10   13   15  48.4  65.3 1027.8 -9.9 -9.999 -99.9 -99.99 -9.99
2019/12/10 21:36 CST    1.47   0.97    9    3   15  48.4  65.3 1027.9 -9.9 -9.999 -99.9 -99.99 -9.99
2019/12/10 21:42 CST    1.47   0.97   11   14   18  48.2  65.3 1027.9 -9.9 -9.999 -99.9 -99.99 -9.99
2019/12/10 21:48 CST    1.47   0.96    9   10   13  48.2  65.3 1028.0 -9.9 -9.999 -99.9 -99.99 -9.99
2019/12/10 21:54 CST    1.46   0.96    9    9   12  48.2  65.3 1028.0 -9.9 -9.999 -99.9 -99.99 -9.99
2019/12/10 22:00 CST    1.46   0.93   11   11   15  48.4  65.3 1028.0 -9.9 -9.999 -99.9 -99.99 -9.99
2019/12/10 22:06 CST    1.45   0.90   11  359   16  48.2  65.3 1028.1 -9.9 -9.999 -99.9 -99.99 -9.99
2019/12/10 22:12 CST    1.45   0.90   11    7   15  48.0  65.1 1028.1 -9.9 -9.999 -99.9 -99.99 -9.99
2019/12/10 22:18 CST    1.44   0.90   12   16   16  47.8  65.1 1028.1 -9.9 -9.999 -99.9 -99.99 -9.99
2019/12/10 22:24 CST    1.44   0.88    8    9   14  47.8  65.1 1028.2 -9.9 -9.999 -99.9 -99.99 -9.99
2019/12/10 22:30 CST    1.43   0.83   11    9   14  47.7  65.1 1028.3 -9.9 -9.999 -99.9 -99.99 -9.99
2019/12/10 22:36 CST    1.42   0.80   11   12   15  47.5  64.9 1028.2 -9.9 -9.999 -99.9 -99.99 -9.99
2019/12/10 22:42 CST    1.42   0.80    9    7   14  47.5  64.9 1028.3 -9.9 -9.999 -99.9 -99.99 -9.99
2019/12/10 22:48 CST    1.41   0.79    8   16   13  47.7  64.9 1028.3 -9.9 -9.999 -99.9 -99.99 -9.99
2019/12/10 22:54 CST    1.40   0.76    8   20   11  47.3  64.9 1028.4 -9.9 -9.999 -99.9 -99.99 -9.99
2019/12/10 23:00 CST    1.39   0.76   10   11   14  47.1  64.9 1028.4 -9.9 -9.999 -99.9 -99.99 -9.99
2019/12/10 23:06 CST    1.39   0.74   11   18   15  47.1  64.9 1028.4 -9.9 -9.999 -99.9 -99.99 -9.99
2019/12/10 23:12 CST    1.38   0.74    9   25   12  47.1  64.9 1028.4 -9.9 -9.999 -99.9 -99.99 -9.99
2019/12/10 23:18 CST    1.37   0.72    9   14   12  47.1  64.9 1028.5 -9.9 -9.999 -99.9 -99.99 -9.99
2019/12/10 23:24 CST    1.36   0.71    8   24   14  46.9  64.9 1028.4 -9.9 -9.999 -99.9 -99.99 -9.99
2019/12/10 23:30 CST    1.35   0.72    9   12   12  46.8  64.9 1028.5 -9.9 -9.999 -99.9 -99.99 -9.99
2019/12/10 23:36 CST    1.34   0.71    8   33   12  46.8  64.9 1028.4 -9.9 -9.999 -99.9 -99.99 -9.99
2019/12/10 23:42 CST    1.34   0.72    7   36   11  46.8  64.9 1028.5 -9.9 -9.999 -99.9 -99.99 -9.99
2019/12/10 23:48 CST    1.33   0.71    8   22   11  46.6  64.9 1028.5 -9.9 -9.999 -99.9 -99.99 -9.99
2019/12/10 23:54 CST    1.32   0.74    8   36   11  46.8  64.9 1028.5 -9.9 -9.999 -99.9 -99.99 -9.99
2019/12/11 00:00 CST    1.31   0.77    9   13   13  46.6  64.9 1028.6 -9.9 -9.999 -99.9 -99.99 -9.99
2019/12/11 00:06 CST    1.30   0.74    7   21   13  46.4  64.9 1028.6 -9.9 -9.999 -99.9 -99.99 -9.99
2019/12/11 00:12 CST    1.29   0.75    9   20   14  46.6  64.9 1028.7 -9.9 -9.999 -99.9 -99.99 -9.99
2019/12/11 00:18 CST    1.29   0.77    9   36   14  46.4  64.9 1028.8 -9.9 -9.999 -99.9 -99.99 -9.99
2019/12/11 00:24 CST    1.28   0.78   10   23   14  46.4  64.9 1028.8 -9.9 -9.999 -99.9 -99.99 -9.99
2019/12/11 00:30 CST    1.27   0.81   11   18   15  46.4  64.9 1028.9 -9.9 -9.999 -99.9 -99.99 -9.99
2019/12/11 00:36 CST    1.26   0.85    7   29   15  46.4  64.9 1029.0 -9.9 -9.999 -99.9 -99.99 -9.99
2019/12/11 00:42 CST    1.26   0.85    7   37   14  46.6  64.9 1029.0 -9.9 -9.999 -99.9 -99.99 -9.99
2019/12/11 00:48 CST    1.25   0.88    9   27   11  46.4  64.9 1029.0 -9.9 -9.999 -99.9 -99.99 -9.99
2019/12/11 00:54 CST    1.24   0.93   11    4   14  46.2  64.9 1029.1 -9.9 -9.999 -99.9 -99.99 -9.99
2019/12/11 01:00 CST    1.24   0.91    9    7   13  45.7  64.9 1029.0 -9.9 -9.999 -99.9 -99.99 -9.99
2019/12/11 01:06 CST    1.23   0.93   10    9   15  45.5  65.1 1029.1 -9.9 -9.999 -99.9 -99.99 -9.99
2019/12/11 01:12 CST    1.22   0.95    9    7   13  45.5  65.1 1029.1 -9.9 -9.999 -99.9 -99.99 -9.99
2019/12/11 01:18 CST    1.21   0.95    7   12   14  45.7  65.1 1029.1 -9.9 -9.999 -99.9 -99.99 -9.99
2019/12/11 01:24 CST    1.21   0.95    7   21   11  45.7  65.1 1029.2 -9.9 -9.999 -99.9 -99.99 -9.99
2019/12/11 01:30 CST    1.20   0.96    9   14   12  45.5  65.1 1029.2 -9.9 -9.999 -99.9 -99.99 -9.99
2019/12/11 01:36 CST    1.19   0.96   10   40   14  45.7  65.1 1029.2 -9.9 -9.999 -99.9 -99.99 -9.99
2019/12/11 01:42 CST    1.19   0.96    9   37   13  45.5  65.1 1029.2 -9.9 -9.999 -99.9 -99.99 -9.99
2019/12/11 01:48 CST    1.18   0.97    9   26   12  45.3  65.1 1029.3 -9.9 -9.999 -99.9 -99.99 -9.99
2019/12/11 01:54 CST    1.17   0.96   11   30   14  45.1  64.9 1029.3 -9.9 -9.999 -99.9 -99.99 -9.99
2019/12/11 02:00 CST    1.17   0.96   12   38   17  45.1  64.9 1029.3 -9.9 -9.999 -99.9 -99.99 -9.99
2019/12/11 02:06 CST    1.16   0.97    7   42   13  45.3  64.9 1029.3 -9.9 -9.999 -99.9 -99.99 -9.99
2019/12/11 02:12 CST    1.16   0.96   10   57   13  45.1  64.9 1029.3 -9.9 -9.999 -99.9 -99.99 -9.99
2019/12/11 02:18 CST    1.15   0.95    7   41   12  45.3  64.8 1029.2 -9.9 -9.999 -99.9 -99.99 -9.99
2019/12/11 02:24 CST    1.14   0.95    9   50   12  45.1  64.6 1029.2 -9.9 -9.999 -99.9 -99.99 -9.99
2019/12/11 02:30 CST    1.14   0.94    8   27   11  45.0  64.6 1029.2 -9.9 -9.999 -99.9 -99.99 -9.99
2019/12/11 02:36 CST    1.13   0.92    8   21   14  45.0  64.6 1029.3 -9.9 -9.999 -99.9 -99.99 -9.99
2019/12/11 02:42 CST    1.13   0.92   11   34   15  44.6  64.4 1029.4 -9.9 -9.999 -99.9 -99.99 -9.99
2019/12/11 02:48 CST    1.13   0.88   11   26   17  44.6  64.4 1029.5 -9.9 -9.999 -99.9 -99.99 -9.99
2019/12/11 02:54 CST    1.12   0.87   11   39   17  44.8  64.4 1029.5 -9.9 -9.999 -99.9 -99.99 -9.99
2019/12/11 03:00 CST    1.12   0.86   10   45   15  44.8  64.4 1029.4 -9.9 -9.999 -99.9 -99.99 -9.99
2019/12/11 03:06 CST    1.12   0.83   11   45   16  44.8  64.4 1029.4 -9.9 -9.999 -99.9 -99.99 -9.99
2019/12/11 03:12 CST    1.12   0.85    9   36   15  44.8  64.4 1029.4 -9.9 -9.999 -99.9 -99.99 -9.99
2019/12/11 03:18 CST    1.11   0.83    9   47   14  44.8  64.4 1029.3 -9.9 -9.999 -99.9 -99.99 -9.99
2019/12/11 03:24 CST    1.11   0.85    8   51   14  45.0  64.4 1029.4 -9.9 -9.999 -99.9 -99.99 -9.99
2019/12/11 03:30 CST    1.11   0.85    5   44   15  45.1  64.4 1029.5 -9.9 -9.999 -99.9 -99.99 -9.99
2019/12/11 03:36 CST    1.11   0.84    7   37   10  45.0  64.4 1029.6 -9.9 -9.999 -99.9 -99.99 -9.99
2019/12/11 03:42 CST    1.11   0.85    6   28   10  44.8  64.4 1029.6 -9.9 -9.999 -99.9 -99.99 -9.99
2019/12/11 03:48 CST    1.11   0.86    5   22   10  44.8  64.4 1029.6 -9.9 -9.999 -99.9 -99.99 -9.99
2019/12/11 03:54 CST    1.11   0.86    8   27   12  44.8  64.4 1029.7 -9.9 -9.999 -99.9 -99.99 -9.99
2019/12/11 04:00 CST    1.11   0.86    6   21   12  44.8  64.4 1029.7 -9.9 -9.999 -99.9 -99.99 -9.99
2019/12/11 04:06 CST    1.11   0.87    8   37   11  44.6  64.4 1029.8 -9.9 -9.999 -99.9 -99.99 -9.99
2019/12/11 04:12 CST    1.12   0.88    6   37   11  44.8  64.4 1029.8 -9.9 -9.999 -99.9 -99.99 -9.99
2019/12/11 04:18 CST    1.12   0.89    5   25    8  45.0  64.4 1029.8 -9.9 -9.999 -99.9 -99.99 -9.99
2019/12/11 04:24 CST    1.12   0.91    8   36   14  44.6  64.4 1029.8 -9.9 -9.999 -99.9 -99.99 -9.99
2019/12/11 04:30 CST    1.12   0.96    7   30   13  44.4  64.4 1029.7 -9.9 -9.999 -99.9 -99.99 -9.99
2019/12/11 04:36 CST    1.12   0.95    9   37   11  44.6  64.4 1029.8 -9.9 -9.999 -99.9 -99.99 -9.99
2019/12/11 04:42 CST    1.12   0.96    9   30   13  44.4  64.4 1029.8 -9.9 -9.999 -99.9 -99.99 -9.99
2019/12/11 04:48 CST    1.12   0.96    7   43   12  44.6  64.4 1029.8 -9.9 -9.999 -99.9 -99.99 -9.99
2019/12/11 04:54 CST    1.11   0.99    6   33   10  44.6  64.4 1029.8 -9.9 -9.999 -99.9 -99.99 -9.99
2019/12/11 05:00 CST    1.11   1.02    6   39   10  44.6  64.4 1029.8 -9.9 -9.999 -99.9 -99.99 -9.99
2019/12/11 05:06 CST    1.11   1.00    6   35    9  44.4  64.4 1029.8 -9.9 -9.999 -99.9 -99.99 -9.99
2019/12/11 05:12 CST    1.11   1.01    6   12    9  44.6  64.4 1029.9 -9.9 -9.999 -99.9 -99.99 -9.99
2019/12/11 05:18 CST    1.10   1.02    7   23   11  44.4  64.4 1030.0 -9.9 -9.999 -99.9 -99.99 -9.99
2019/12/11 05:24 CST    1.10   1.05   10   26   14  44.2  64.4 1030.0 -9.9 -9.999 -99.9 -99.99 -9.99
2019/12/11 05:30 CST    1.10   1.03    8   38   14  44.2  64.4 1030.1 -9.9 -9.999 -99.9 -99.99 -9.99
2019/12/11 05:36 CST    1.09   1.03    8   35   11  44.4  64.6 1030.1 -9.9 -9.999 -99.9 -99.99 -9.99
2019/12/11 05:42 CST    1.08   1.04    7   39   11  44.4  64.6 1030.2 -9.9 -9.999 -99.9 -99.99 -9.99
2019/12/11 05:48 CST    1.08   1.04    8   34   12  44.2  64.4 1030.3 -9.9 -9.999 -99.9 -99.99 -9.99
2019/12/11 05:54 CST    1.07   1.01    8   36   13  44.4  64.4 1030.4 -9.9 -9.999 -99.9 -99.99 -9.99
2019/12/11 06:00 CST    1.06   0.98    9   32   13  44.1  64.2 1030.5 -9.9 -9.999 -99.9 -99.99 -9.99
2019/12/11 06:06 CST    1.05   0.98   11   11   15  44.1  64.2 1030.6 -9.9 -9.999 -99.9 -99.99 -9.99
2019/12/11 06:12 CST    1.05   0.97    7   19   13  44.1  64.0 1030.7 -9.9 -9.999 -99.9 -99.99 -9.99
2019/12/11 06:18 CST    1.04   0.89    7   30   12  44.1  64.0 1030.8 -9.9 -9.999 -99.9 -99.99 -9.99
2019/12/11 06:24 CST    1.03   0.90    8   34   13  43.9  63.9 1031.0 -9.9 -9.999 -99.9 -99.99 -9.99
2019/12/11 06:30 CST    1.01   0.89   10   33   15  43.7  63.9 1031.1 -9.9 -9.999 -99.9 -99.99 -9.99
2019/12/11 06:36 CST    1.00   0.85    9   28   13  43.5  63.9 1031.2 -9.9 -9.999 -99.9 -99.99 -9.99
2019/12/11 06:42 CST    0.99   0.83    7   37   10  43.5  63.9 1031.3 -9.9 -9.999 -99.9 -99.99 -9.99
2019/12/11 06:48 CST    0.98   0.80    5   27    8  43.3  63.9 1031.3 -9.9 -9.999 -99.9 -99.99 -9.99
2019/12/11 06:54 CST    0.96   0.78    5   27    6  43.5  63.9 1031.4 -9.9 -9.999 -99.9 -99.99 -9.99
2019/12/11 07:00 CST    0.95   0.75    5   31    7  43.5  63.9 1031.5 -9.9 -9.999 -99.9 -99.99 -9.99
2019/12/11 07:06 CST    0.93   0.74    7   25   10  43.5  63.9 1031.6 -9.9 -9.999 -99.9 -99.99 -9.99
2019/12/11 07:12 CST    0.92   0.72    5   34    8  43.5  63.9 1031.8 -9.9 -9.999 -99.9 -99.99 -9.99
2019/12/11 07:18 CST    0.90   0.69    6   39    8  43.3  63.9 1031.8 -9.9 -9.999 -99.9 -99.99 -9.99
2019/12/11 07:24 CST    0.88   0.66    4   30    8  43.3  63.7 1032.0 -9.9 -9.999 -99.9 -99.99 -9.99
2019/12/11 07:30 CST    0.86   0.65    5   16    8  43.5  63.7 1032.1 -9.9 -9.999 -99.9 -99.99 -9.99
2019/12/11 07:36 CST    0.84   0.65    6    8   11  43.5  63.7 1032.1 -9.9 -9.999 -99.9 -99.99 -9.99
2019/12/11 07:42 CST    0.82   0.61    7   14   11  43.5  63.7 1032.2 -9.9 -9.999 -99.9 -99.99 -9.99
2019/12/11 07:48 CST    0.80   0.60    6   36    9  43.5  63.7 1032.2 -9.9 -9.999 -99.9 -99.99 -9.99
2019/12/11 07:54 CST    0.77   0.59    6   26    9  43.7  63.7 1032.3 -9.9 -9.999 -99.9 -99.99 -9.99
2019/12/11 08:00 CST    0.75   0.62    8   34   11  43.5  63.7 1032.4 -9.9 -9.999 -99.9 -99.99 -9.99
2019/12/11 08:06 CST    0.72   0.58    9   39   13  43.3  63.7 1032.4 -9.9 -9.999 -99.9 -99.99 -9.99
2019/12/11 08:12 CST    0.70   0.53    7   32   12  43.5  63.7 1032.4 -9.9 -9.999 -99.9 -99.99 -9.99
2019/12/11 08:18 CST    0.67   0.55    7   31   11  43.3  63.7 1032.5 -9.9 -9.999 -99.9 -99.99 -9.99
2019/12/11 08:24 CST    0.64   0.56    5   21    8  43.9  63.7 1032.5 -9.9 -9.999 -99.9 -99.99 -9.99
2019/12/11 08:30 CST    0.61   0.54    5   27    8  44.1  63.7 1032.6 -9.9 -9.999 -99.9 -99.99 -9.99
2019/12/11 08:36 CST    0.58   0.59    4   18    7  44.4  63.7 1032.6 -9.9 -9.999 -99.9 -99.99 -9.99
2019/12/11 08:42 CST    0.56   0.58    9   38   12  44.1  63.7 1032.7 -9.9 -9.999 -99.9 -99.99 -9.99
2019/12/11 08:48 CST    0.52   0.60    8   24   12  43.7  63.5 1032.8 -9.9 -9.999 -99.9 -99.99 -9.99
2019/12/11 08:54 CST    0.49   0.60    9    9   11  43.7  63.5 1032.8 -9.9 -9.999 -99.9 -99.99 -9.99
2019/12/11 09:00 CST    0.46   0.56    6   24   10  44.2  63.5 1032.8 -9.9 -9.999 -99.9 -99.99 -9.99
2019/12/11 09:06 CST    0.43   0.57    7   17   11  44.2  63.5 1032.8 -9.9 -9.999 -99.9 -99.99 -9.99
2019/12/11 09:12 CST    0.40   0.58    8   31   11  44.2  63.3 1032.9 -9.9 -9.999 -99.9 -99.99 -9.99
2019/12/11 09:18 CST    0.37   0.54    8   31   11  44.2  63.3 1033.0 -9.9 -9.999 -99.9 -99.99 -9.99
2019/12/11 09:24 CST    0.34   0.51    7   13   11  45.0  63.3 1033.1 -9.9 -9.999 -99.9 -99.99 -9.99
2019/12/11 09:30 CST    0.30   0.52    6   18   10  45.1  63.3 1033.2 -9.9 -9.999 -99.9 -99.99 -9.99
2019/12/11 09:36 CST    0.27   0.43    7   38    9  45.7  63.3 1033.2 -9.9 -9.999 -99.9 -99.99 -9.99
2019/12/11 09:42 CST    0.24   0.42    6  322    8  45.9  63.3 1033.1 -9.9 -9.999 -99.9 -99.99 -9.99
2019/12/11 09:48 CST    0.21   0.35    5  327    7  45.9  63.3 1033.1 -9.9 -9.999 -99.9 -99.99 -9.99
2019/12/11 09:54 CST    0.18   0.28    8   19   11  45.5  63.5 1033.1 -9.9 -9.999 -99.9 -99.99 -9.99
2019/12/11 10:00 CST    0.15   0.28    5  358   10  46.2  63.5 1033.1 -9.9 -9.999 -99.9 -99.99 -9.99
2019/12/11 10:06 CST    0.11   0.22    3   29    8  46.6  63.5 1033.2 -9.9 -9.999 -99.9 -99.99 -9.99
2019/12/11 10:12 CST    0.08   0.15    5  344    8  46.8  63.5 1033.1 -9.9 -9.999 -99.9 -99.99 -9.99
2019/12/11 10:18 CST    0.05   0.11    8    1   11  46.4  63.7 1033.1 -9.9 -9.999 -99.9 -99.99 -9.99
2019/12/11 10:24 CST    0.02   0.06    6  358    9  46.9  63.7 1033.2 -9.9 -9.999 -99.9 -99.99 -9.99
2019/12/11 10:30 CST   -0.01   0.02    8    6   11  46.6  63.7 1033.1 -9.9 -9.999 -99.9 -99.99 -9.99
2019/12/11 10:36 CST   -0.04   0.01    6    3   12  47.3  64.0 1033.1 -9.9 -9.999 -99.9 -99.99 -9.99
2019/12/11 10:42 CST   -0.07  -0.07    5   61   11  47.7  63.9 1033.0 -9.9 -9.999 -99.9 -99.99 -9.99
2019/12/11 10:48 CST   -0.09  -0.10    6   21   10  48.0  63.9 1033.0 -9.9 -9.999 -99.9 -99.99 -9.99
2019/12/11 10:54 CST   -0.12  -0.11    7   27   12  48.2  63.9 1032.9 -9.9 -9.999 -99.9 -99.99 -9.99
2019/12/11 11:00 CST   -0.15  -0.16    7   15   11  48.7  63.7 1032.8 -9.9 -9.999 -99.9 -99.99 -9.99
2019/12/11 11:06 CST   -0.18  -0.20    8   44   12  48.7  63.7 1032.7 -9.9 -9.999 -99.9 -99.99 -9.99
2019/12/11 11:12 CST   -0.20  -0.15    6   24   10  49.1  63.7 1032.6 -9.9 -9.999 -99.9 -99.99 -9.99
2019/12/11 11:18 CST   -0.23  -0.20    6   45   12  49.8  63.7 1032.6 -9.9 -9.999 -99.9 -99.99 -9.99
2019/12/11 11:24 CST   -0.25  -0.17    7   39   10  49.8  63.7 1032.5 -9.9 -9.999 -99.9 -99.99 -9.99
2019/12/11 11:30 CST   -0.28  -0.14    8   34   11  49.6  64.0 1032.4 -9.9 -9.999 -99.9 -99.99 -9.99
2019/12/11 11:36 CST   -0.30  -0.19    9   37   11  50.0  64.0 1032.3 -9.9 -9.999 -99.9 -99.99 -9.99
2019/12/11 11:42 CST   -0.32  -0.18    7   39   12  50.2  64.0 1032.2 -9.9 -9.999 -99.9 -99.99 -9.99
2019/12/11 11:48 CST   -0.34  -0.20    8   38   12  50.9  64.0 1032.0 -9.9 -9.999 -99.9 -99.99 -9.99
2019/12/11 11:54 CST   -0.36  -0.23    8   39   13  50.7  64.0 1032.0 -9.9 -9.999 -99.9 -99.99 -9.99
2019/12/11 12:00 CST   -0.38  -0.22    9   24   11  50.9  64.0 1031.8 -9.9 -9.999 -99.9 -99.99 -9.99
2019/12/11 12:06 CST   -0.40  -0.23    7   67   11  51.4  64.0 1031.6 -9.9 -9.999 -99.9 -99.99 -9.99
2019/12/11 12:12 CST   -0.42  -0.25    6   49   10  52.3  64.0 1031.4 -9.9 -9.999 -99.9 -99.99 -9.99
2019/12/11 12:18 CST   -0.44  -0.26    8   45   13  52.2  64.0 1031.3 -9.9 -9.999 -99.9 -99.99 -9.99
2019/12/11 12:24 CST   -0.45  -0.29    6   47   11  52.5  64.2 1031.1 -9.9 -9.999 -99.9 -99.99 -9.99
2019/12/11 12:30 CST   -0.47  -0.26    7   55   10  52.5  64.2 1031.0 -9.9 -9.999 -99.9 -99.99 -9.99
2019/12/11 12:36 CST   -0.48  -0.29    8   34   10  52.7  64.2 1031.0 -9.9 -9.999 -99.9 -99.99 -9.99
2019/12/11 12:42 CST   -0.49  -0.34    6   44   11  53.1  64.4 1030.8 -9.9 -9.999 -99.9 -99.99 -9.99
2019/12/11 12:48 CST   -0.50  -0.35    8   46   13  53.8  64.6 1030.7 -9.9 -9.999 -99.9 -99.99 -9.99
2019/12/11 12:54 CST   -0.51  -0.36    7   55   10  53.8  64.6 1030.7 -9.9 -9.999 -99.9 -99.99 -9.99
2019/12/11 13:00 CST   -0.52  -0.36    6   47   10  54.0  64.9 1030.6 -9.9 -9.999 -99.9 -99.99 -9.99
2019/12/11 13:06 CST   -0.53  -0.40    5   47   11  54.1  65.1 1030.5 -9.9 -9.999 -99.9 -99.99 -9.99
2019/12/11 13:12 CST   -0.53  -0.36    9   25   11  54.3  65.1 1030.4 -9.9 -9.999 -99.9 -99.99 -9.99
2019/12/11 13:18 CST   -0.54  -0.41    7   48   11  55.2  65.1 1030.3 -9.9 -9.999 -99.9 -99.99 -9.99
2019/12/11 13:24 CST   -0.54  -0.52    7   33   11  55.4  65.1 1030.1 -9.9 -9.999 -99.9 -99.99 -9.99
2019/12/11 13:30 CST   -0.55  -0.45    8   45   11  55.6  65.1 1030.0 -9.9 -9.999 -99.9 -99.99 -9.99
2019/12/11 13:36 CST   -0.55  -0.43    7   50   11  55.6  65.1 1029.9 -9.9 -9.999 -99.9 -99.99 -9.99
2019/12/11 13:42 CST   -0.55  -0.37    7   45   10  55.6  65.3 1029.8 -9.9 -9.999 -99.9 -99.99 -9.99
2019/12/11 13:48 CST   -0.55  -0.42    5   21   11  56.1  65.3 1029.7 -9.9 -9.999 -99.9 -99.99 -9.99
2019/12/11 13:54 CST   -0.54  -0.40    9   27   14  56.7  65.3 1029.6 -9.9 -9.999 -99.9 -99.99 -9.99
2019/12/11 14:00 CST   -0.54  -0.37    6   48   13  56.8  65.3 1029.6 -9.9 -9.999 -99.9 -99.99 -9.99
2019/12/11 14:06 CST   -0.54  -0.36    5   40   13  56.8  65.3 1029.5 -9.9 -9.999 -99.9 -99.99 -9.99
2019/12/11 14:12 CST   -0.53  -0.31    9   35   12  57.0  65.3 1029.4 -9.9 -9.999 -99.9 -99.99 -9.99
2019/12/11 14:18 CST   -0.52  -0.27    8   20   11  56.8  65.3 1029.4 -9.9 -9.999 -99.9 -99.99 -9.99
2019/12/11 14:24 CST   -0.51  -0.24    8   34   12  57.0  65.3 1029.3 -9.9 -9.999 -99.9 -99.99 -9.99
2019/12/11 14:30 CST   -0.50  -0.22    7   28   11  56.8  65.3 1029.4 -9.9 -9.999 -99.9 -99.99 -9.99
2019/12/11 14:36 CST   -0.49  -0.22    7   39   11  57.0  65.3 1029.4 -9.9 -9.999 -99.9 -99.99 -9.99
2019/12/11 14:42 CST   -0.48  -0.18    8   37   11  56.7  65.3 1029.3 -9.9 -9.999 -99.9 -99.99 -9.99
2019/12/11 14:48 CST   -0.47  -0.16    7   24   11  57.7  65.3 1029.3 -9.9 -9.999 -99.9 -99.99 -9.99
2019/12/11 14:54 CST   -0.45  -0.12    6   22    9  57.4  65.3 1029.3 -9.9 -9.999 -99.9 -99.99 -9.99
2019/12/11 15:00 CST   -0.43  -0.10    7   34   11  58.6  65.3 1029.3 -9.9 -9.999 -99.9 -99.99 -9.99
2019/12/11 15:06 CST   -0.42  -0.11    6   34   11  58.1  65.3 1029.3 -9.9 -9.999 -99.9 -99.99 -9.99
2019/12/11 15:12 CST   -0.39  -0.04    4   38    9  58.3  65.1 1029.3 -9.9 -9.999 -99.9 -99.99 -9.99
2019/12/11 15:18 CST   -0.37  -0.04    7   40   10  57.7  65.1 1029.2 -9.9 -9.999 -99.9 -99.99 -9.99
2019/12/11 15:24 CST   -0.35  -0.04    6   50   10  57.9  65.1 1029.2 -9.9 -9.999 -99.9 -99.99 -9.99
2019/12/11 15:30 CST   -0.32   0.02    6   30    9  58.1  65.1 1029.2 -9.9 -9.999 -99.9 -99.99 -9.99
2019/12/11 15:36 CST   -0.30   0.05    6   16   10  57.9  64.9 1029.1 -9.9 -9.999 -99.9 -99.99 -9.99
2019/12/11 15:42 CST   -0.27   0.10    6   20   10  58.1  64.9 1029.1 -9.9 -9.999 -99.9 -99.99 -9.99
2019/12/11 15:48 CST   -0.24   0.11    5   54   10  57.9  64.9 1029.0 -9.9 -9.999 -99.9 -99.99 -9.99
2019/12/11 15:54 CST   -0.21   0.16    7   53   10  58.1  64.9 1029.0 -9.9 -9.999 -99.9 -99.99 -9.99
2019/12/11 16:00 CST   -0.17   0.19    5   31   10  58.1  64.9 1029.0 -9.9 -9.999 -99.9 -99.99 -9.99
2019/12/11 16:06 CST   -0.14   0.18    6   38   10  58.1  64.9 1029.0 -9.9 -9.999 -99.9 -99.99 -9.99
2019/12/11 16:12 CST   -0.11   0.23    6   39   11  58.1  64.8 1028.9 -9.9 -9.999 -99.9 -99.99 -9.99
2019/12/11 16:18 CST   -0.07   0.34    5   56   10  58.1  64.8 1028.9 -9.9 -9.999 -99.9 -99.99 -9.99
2019/12/11 16:24 CST   -0.03   0.32    7   26    9  57.9  64.8 1028.8 -9.9 -9.999 -99.9 -99.99 -9.99
2019/12/11 16:30 CST    0.01   0.36    6   39   11  57.9  64.8 1028.8 -9.9 -9.999 -99.9 -99.99 -9.99
2019/12/11 16:36 CST    0.05   0.43    5   31   10  57.9  64.8 1028.8 -9.9 -9.999 -99.9 -99.99 -9.99
2019/12/11 16:42 CST    0.09   0.43    6   37    8  57.9  64.8 1028.7 -9.9 -9.999 -99.9 -99.99 -9.99
2019/12/11 16:48 CST    0.13   0.49    6   36    9  57.6  64.6 1028.7 -9.9 -9.999 -99.9 -99.99 -9.99
2019/12/11 16:54 CST    0.17   0.56    6   34    9  57.6  64.6 1028.7 -9.9 -9.999 -99.9 -99.99 -9.99
2019/12/11 17:00 CST    0.21   0.61    7   36    9  57.2  64.6 1028.8 -9.9 -9.999 -99.9 -99.99 -9.99
2019/12/11 17:06 CST    0.26   0.65    5   35    9  57.0  64.6 1028.8 -9.9 -9.999 -99.9 -99.99 -9.99
2019/12/11 17:12 CST    0.30   0.73    5   31    8  56.8  64.6 1028.8 -9.9 -9.999 -99.9 -99.99 -9.99
2019/12/11 17:18 CST    0.34   0.80    5   27    8  56.7  64.6 1028.7 -9.9 -9.999 -99.9 -99.99 -9.99
2019/12/11 17:24 CST    0.38   0.84    7   32    8  56.3  64.6 1028.7 -9.9 -9.999 -99.9 -99.99 -9.99
2019/12/11 17:30 CST    0.43   0.93    6   30    8  56.1  64.8 1028.7 -9.9 -9.999 -99.9 -99.99 -9.99
2019/12/11 17:36 CST    0.47   0.95    4   33    7  55.8  64.8 1028.7 -9.9 -9.999 -99.9 -99.99 -9.99
2019/12/11 17:42 CST    0.51   0.97    5   25    8  55.4  64.8 1028.7 -9.9 -9.999 -99.9 -99.99 -9.99
2019/12/11 17:48 CST    0.55   1.00    4   24    7  55.2  64.8 1028.7 -9.9 -9.999 -99.9 -99.99 -9.99
2019/12/11 17:54 CST    0.60   0.99    4   29    7  55.0  64.6 1028.7 -9.9 -9.999 -99.9 -99.99 -9.99
2019/12/11 18:00 CST    0.64   1.04    4   24    6  54.9  64.6 1028.8 -9.9 -9.999 -99.9 -99.99 -9.99
2019/12/11 18:06 CST    0.68   1.07    4   24    6  54.5  64.6 1028.9 -9.9 -9.999 -99.9 -99.99 -9.99
2019/12/11 18:12 CST    0.72   1.14    5   26    8  54.3  64.6 1029.0 -9.9 -9.999 -99.9 -99.99 -9.99
2019/12/11 18:18 CST    0.76   1.17    4   34    6  54.1  64.6 1029.0 -9.9 -9.999 -99.9 -99.99 -9.99
2019/12/11 18:24 CST    0.80   1.19    4   42    6  53.8  64.8 1029.0 -9.9 -9.999 -99.9 -99.99 -9.99
2019/12/11 18:30 CST    0.84   1.22    4   43    5  53.6  64.8 1029.0 -9.9 -9.999 -99.9 -99.99 -9.99
2019/12/11 18:36 CST    0.88   1.25    3   36    5  53.4  64.8 1029.1 -9.9 -9.999 -99.9 -99.99 -9.99
2019/12/11 18:42 CST    0.92   1.28    4   30    5  53.2  64.8 1029.1 -9.9 -9.999 -99.9 -99.99 -9.99
2019/12/11 18:48 CST    0.96   1.32    3   24    5  53.1  64.8 1029.2 -9.9 -9.999 -99.9 -99.99 -9.99
2019/12/11 18:54 CST    0.99   1.33    4   24    5  52.9  64.8 1029.2 -9.9 -9.999 -99.9 -99.99 -9.99
2019/12/11 19:00 CST    1.03   1.35    4   28    5  52.7  64.9 1029.3 -9.9 -9.999 -99.9 -99.99 -9.99
2019/12/11 19:06 CST    1.06   1.36    3   31    5  52.7  64.9 1029.3 -9.9 -9.999 -99.9 -99.99 -9.99
2019/12/11 19:12 CST    1.10   1.40    4   41    6  52.5  64.9 1029.3 -9.9 -9.999 -99.9 -99.99 -9.99
2019/12/11 19:18 CST    1.13   1.42    3   45    4  52.2  64.9 1029.4 -9.9 -9.999 -99.9 -99.99 -9.99
2019/12/11 19:24 CST    1.16   1.46    3   48    5  52.0  64.9 1029.4 -9.9 -9.999 -99.9 -99.99 -9.99
2019/12/11 19:30 CST    1.19   1.52    4   39    6  52.0  64.9 1029.4 -9.9 -9.999 -99.9 -99.99 -9.99
2019/12/11 19:36 CST    1.22   1.51    4   31    5  51.6  64.9 1029.4 -9.9 -9.999 -99.9 -99.99 -9.99
2019/12/11 19:42 CST    1.25   1.54    4   35    5  51.6  64.9 1029.4 -9.9 -9.999 -99.9 -99.99 -9.99
2019/12/11 19:48 CST    1.28   1.56    3   36    5  51.3  64.9 1029.3 -9.9 -9.999 -99.9 -99.99 -9.99
2019/12/11 19:54 CST    1.31   1.58    3   39    5  51.1  64.9 1029.4 -9.9 -9.999 -99.9 -99.99 -9.99
2019/12/11 20:00 CST    1.33   1.59    3   33    5  50.9  64.9 1029.4 -9.9 -9.999 -99.9 -99.99 -9.99
2019/12/11 20:06 CST    1.35   1.64    3   29    4  50.5  64.9 1029.4 -9.9 -9.999 -99.9 -99.99 -9.99
2019/12/11 20:12 CST    1.38   1.65    3   30    4  50.5  64.9 1029.5 -9.9 -9.999 -99.9 -99.99 -9.99
2019/12/11 20:18 CST    1.40   1.66    3   30    4  50.4  64.9 1029.4 -9.9 -9.999 -99.9 -99.99 -9.99
2019/12/11 20:24 CST    1.41   1.68    3   37    4  50.4  64.9 1029.5 -9.9 -9.999 -99.9 -99.99 -9.99
2019/12/11 20:30 CST    1.43   1.72    3   32    4  50.2  64.9 1029.5 -9.9 -9.999 -99.9 -99.99 -9.99
2019/12/11 20:36 CST    1.45   1.79    3   34    5  50.0  64.9 1029.4 -9.9 -9.999 -99.9 -99.99 -9.99
2019/12/11 20:42 CST    1.46   1.76    4   47    5  49.8  64.9 1029.4 -9.9 -9.999 -99.9 -99.99 -9.99
2019/12/11 20:48 CST    1.47   1.73    4   47    5  49.3  64.9 1029.4 -9.9 -9.999 -99.9 -99.99 -9.99
2019/12/11 20:54 CST    1.49   1.73    4   49    5  49.1  64.9 1029.4 -9.9 -9.999 -99.9 -99.99 -9.99
2019/12/11 21:00 CST    1.50   1.77    3   46    4  48.9  64.9 1029.5 -9.9 -9.999 -99.9 -99.99 -9.99
2019/12/11 21:06 CST    1.50   1.77    3   49    4  48.9  64.9 1029.5 -9.9 -9.999 -99.9 -99.99 -9.99
2019/12/11 21:12 CST    1.51   1.78    3   44    4  48.6  64.9 1029.5 -9.9 -9.999 -99.9 -99.99 -9.99
2019/12/11 21:18 CST    1.52   1.79    3   49    4  48.6  64.9 1029.5 -9.9 -9.999 -99.9 -99.99 -9.99
2019/12/11 21:24 CST    1.52   1.82    3   40    4  48.4  64.9 1029.5 -9.9 -9.999 -99.9 -99.99 -9.99
2019/12/11 21:30 CST    1.53   1.86    3   29    4  48.4  64.9 1029.5 -9.9 -9.999 -99.9 -99.99 -9.99
2019/12/11 21:36 CST    1.53   1.85    3   29    4  48.4  64.9 1029.5 -9.9 -9.999 -99.9 -99.99 -9.99
2019/12/11 21:42 CST    1.53   1.87    4   29    4  48.2  64.9 1029.5 -9.9 -9.999 -99.9 -99.99 -9.99
2019/12/11 21:48 CST    1.53   1.90    3   20    5  48.2  64.9 1029.5 -9.9 -9.999 -99.9 -99.99 -9.99
2019/12/11 21:54 CST    1.53   1.92    3    6    4  47.7  64.9 1029.6 -9.9 -9.999 -99.9 -99.99 -9.99
2019/12/11 22:00 CST    1.53   1.97    3    7    4  47.3  64.9 1029.6 -9.9 -9.999 -99.9 -99.99 -9.99
2019/12/11 22:06 CST    1.53   1.95    3   10    4  47.3  64.9 1029.6 -9.9 -9.999 -99.9 -99.99 -9.99
2019/12/11 22:12 CST    1.53   1.98    3   26    4  47.5  64.8 1029.6 -9.9 -9.999 -99.9 -99.99 -9.99
2019/12/11 22:18 CST    1.53   2.00    2   20    4  47.7  64.8 1029.6 -9.9 -9.999 -99.9 -99.99 -9.99
2019/12/11 22:24 CST    1.52   2.00    3    9    4  47.3  64.6 1029.6 -9.9 -9.999 -99.9 -99.99 -9.99
2019/12/11 22:30 CST    1.52   2.02    2   11    3  47.1  64.6 1029.6 -9.9 -9.999 -99.9 -99.99 -9.99
2019/12/11 22:36 CST    1.52   2.04    3    4    3  46.9  64.8 1029.7 -9.9 -9.999 -99.9 -99.99 -9.99
2019/12/11 22:42 CST    1.51   2.05    3    6    3  46.8  64.8 1029.6 -9.9 -9.999 -99.9 -99.99 -9.99
2019/12/11 22:48 CST    1.51   2.06    3    8    4  46.6  64.8 1029.5 -9.9 -9.999 -99.9 -99.99 -9.99
2019/12/11 22:54 CST    1.50   2.07    3   23    4  46.9  64.8 1029.4 -9.9 -9.999 -99.9 -99.99 -9.99
2019/12/11 23:00 CST    1.49   2.07    3    1    4  46.2  64.8 1029.5 -9.9 -9.999 -99.9 -99.99 -9.99
2019/12/11 23:06 CST    1.49   2.08    3    5    4  46.0  64.8 1029.4 -9.9 -9.999 -99.9 -99.99 -9.99
2019/12/11 23:12 CST    1.48   2.08    4    4    4  46.0  64.8 1029.4 -9.9 -9.999 -99.9 -99.99 -9.99
2019/12/11 23:18 CST    1.47   2.09    3   21    4  46.0  64.8 1029.3 -9.9 -9.999 -99.9 -99.99 -9.99
2019/12/11 23:24 CST    1.47   2.09    3   28    4  46.2  64.8 1029.2 -9.9 -9.999 -99.9 -99.99 -9.99
2019/12/11 23:30 CST    1.46   2.09    4   42    5  46.2  64.8 1029.1 -9.9 -9.999 -99.9 -99.99 -9.99
2019/12/11 23:36 CST    1.45   2.11    4   39    5  46.0  64.8 1029.0 -9.9 -9.999 -99.9 -99.99 -9.99
2019/12/11 23:42 CST    1.44   2.10    4   37    5  46.4  64.8 1029.0 -9.9 -9.999 -99.9 -99.99 -9.99
2019/12/11 23:48 CST    1.43   2.10    4   34    5  46.6  64.8 1029.1 -9.9 -9.999 -99.9 -99.99 -9.99
2019/12/11 23:54 CST    1.43   2.10    4    6    5  45.1  64.8 1029.0 -9.9 -9.999 -99.9 -99.99 -9.99
2019/12/12 00:00 CST    1.42   2.10    3   14    4  45.1  64.9 1028.9 -9.9 -9.999 -99.9 -99.99 -9.99
2019/12/12 00:06 CST    1.41   2.08    3   36    4  45.9  64.9 1028.8 -9.9 -9.999 -99.9 -99.99 -9.99
2019/12/12 00:12 CST    1.40   2.09    3   30    5  45.7  64.9 1028.7 -9.9 -9.999 -99.9 -99.99 -9.99
2019/12/12 00:18 CST    1.39   2.09    2   33    4  45.5  64.9 1028.7 -9.9 -9.999 -99.9 -99.99 -9.99
2019/12/12 00:24 CST    1.38   2.10    3   13    4  45.0  64.9 1028.7 -9.9 -9.999 -99.9 -99.99 -9.99
2019/12/12 00:30 CST    1.37   2.10    3   45    4  45.5  64.9 1028.6 -9.9 -9.999 -99.9 -99.99 -9.99
2019/12/12 00:36 CST    1.36   2.11    4   53    7  45.9  64.9 1028.6 -9.9 -9.999 -99.9 -99.99 -9.99
2019/12/12 00:42 CST    1.36   2.11    3   35    4  45.1  64.9 1028.6 -9.9 -9.999 -99.9 -99.99 -9.99
2019/12/12 00:48 CST    1.35   2.11    3   33    4  45.3  64.9 1028.6 -9.9 -9.999 -99.9 -99.99 -9.99
2019/12/12 00:54 CST    1.34   2.12    4    4    4  44.4  64.9 1028.6 -9.9 -9.999 -99.9 -99.99 -9.99
2019/12/12 01:00 CST    1.33   2.13    4   12    4  44.2  64.9 1028.4 -9.9 -9.999 -99.9 -99.99 -9.99
2019/12/12 01:06 CST    1.32   2.15    4    7    4  44.2  64.9 1028.4 -9.9 -9.999 -99.9 -99.99 -9.99
2019/12/12 01:12 CST    1.32   2.15    4    4    5  44.4  64.9 1028.5 -9.9 -9.999 -99.9 -99.99 -9.99
2019/12/12 01:18 CST    1.31   2.15    4    6    5  44.4  64.9 1028.4 -9.9 -9.999 -99.9 -99.99 -9.99
2019/12/12 01:24 CST    1.30   2.16    4    7    5  43.9  64.9 1028.4 -9.9 -9.999 -99.9 -99.99 -9.99
2019/12/12 01:30 CST    1.29   2.18    4    7    5  44.1  64.9 1028.4 -9.9 -9.999 -99.9 -99.99 -9.99
2019/12/12 01:36 CST    1.29   2.17    4    1    4  43.7  64.9 1028.4 -9.9 -9.999 -99.9 -99.99 -9.99
2019/12/12 01:42 CST    1.28   2.22    4    3    4  43.7  64.9 1028.4 -9.9 -9.999 -99.9 -99.99 -9.99
2019/12/12 01:48 CST    1.27   2.22    4    4    5  43.5  64.9 1028.3 -9.9 -9.999 -99.9 -99.99 -9.99
2019/12/12 01:54 CST    1.27   2.23    4    8    5  43.2  64.9 1028.2 -9.9 -9.999 -99.9 -99.99 -9.99
2019/12/12 02:00 CST    1.26   2.23    3    0    4  43.2  64.9 1028.3 -9.9 -9.999 -99.9 -99.99 -9.99
2019/12/12 02:06 CST    1.25   2.27    4    2    4  43.3  64.9 1028.3 -9.9 -9.999 -99.9 -99.99 -9.99
2019/12/12 02:12 CST    1.25   2.25    5    3    5  43.3  64.9 1028.3 -9.9 -9.999 -99.9 -99.99 -9.99
2019/12/12 02:18 CST    1.24   2.27    5    5    6  43.2  64.9 1028.2 -9.9 -9.999 -99.9 -99.99 -9.99
2019/12/12 02:24 CST    1.23   2.31    5   21    7  43.5  64.8 1028.0 -9.9 -9.999 -99.9 -99.99 -9.99
2019/12/12 02:30 CST    1.23   2.30    5   34    7  43.9  64.8 1027.9 -9.9 -9.999 -99.9 -99.99 -9.99
2019/12/12 02:36 CST    1.22   2.32    6   33    7  43.9  64.8 1027.8 -9.9 -9.999 -99.9 -99.99 -9.99
2019/12/12 02:42 CST    1.21   2.31    4   31    7  43.9  64.8 1027.7 -9.9 -9.999 -99.9 -99.99 -9.99
2019/12/12 02:48 CST    1.21   2.33    4   37    6  43.9  64.8 1027.7 -9.9 -9.999 -99.9 -99.99 -9.99
2019/12/12 02:54 CST    1.20   2.32    4   52    6  43.5  64.8 1027.6 -9.9 -9.999 -99.9 -99.99 -9.99
2019/12/12 03:00 CST    1.20   2.32    5   62    6  43.9  64.8 1027.5 -9.9 -9.999 -99.9 -99.99 -9.99
2019/12/12 03:06 CST    1.19   2.34    2   30    5  44.1  64.8 1027.5 -9.9 -9.999 -99.9 -99.99 -9.99
2019/12/12 03:12 CST    1.19   2.33    4   30    6  44.1  64.8 1027.4 -9.9 -9.999 -99.9 -99.99 -9.99
2019/12/12 03:18 CST    1.18   2.32    5   46    6  44.1  64.8 1027.3 -9.9 -9.999 -99.9 -99.99 -9.99
2019/12/12 03:24 CST    1.18   2.34    4   49    7  44.4  64.6 1027.1 -9.9 -9.999 -99.9 -99.99 -9.99
2019/12/12 03:30 CST    1.17   2.31    5   58    8  44.4  64.6 1027.1 -9.9 -9.999 -99.9 -99.99 -9.99
2019/12/12 03:36 CST    1.17   2.31    6   57    8  44.4  64.6 1027.0 -9.9 -9.999 -99.9 -99.99 -9.99
2019/12/12 03:42 CST    1.17   2.31    6   54    8  44.6  64.6 1027.0 -9.9 -9.999 -99.9 -99.99 -9.99
2019/12/12 03:48 CST    1.16   2.30    5   56    7  44.8  64.6 1027.0 -9.9 -9.999 -99.9 -99.99 -9.99
2019/12/12 03:54 CST    1.16   2.28    5   53    7  45.0  64.6 1026.9 -9.9 -9.999 -99.9 -99.99 -9.99
2019/12/12 04:00 CST    1.16   2.28    5   45    7  45.1  64.6 1026.8 -9.9 -9.999 -99.9 -99.99 -9.99
2019/12/12 04:06 CST    1.16   2.27    3   41    5  45.1  64.6 1026.7 -9.9 -9.999 -99.9 -99.99 -9.99
2019/12/12 04:12 CST    1.15   2.25    4   53    6  45.3  64.6 1026.6 -9.9 -9.999 -99.9 -99.99 -9.99
2019/12/12 04:18 CST    1.15   2.25    5   51    6  45.5  64.6 1026.4 -9.9 -9.999 -99.9 -99.99 -9.99
2019/12/12 04:24 CST    1.15   2.25    3   42    6  45.5  64.6 1026.4 -9.9 -9.999 -99.9 -99.99 -9.99
2019/12/12 04:30 CST    1.15   2.24    4   37    5  45.3  64.6 1026.3 -9.9 -9.999 -99.9 -99.99 -9.99
2019/12/12 04:36 CST    1.15   2.25    4   40    5  45.3  64.6 1026.3 -9.9 -9.999 -99.9 -99.99 -9.99
2019/12/12 04:42 CST    1.15   2.23    4   49    5  45.3  64.6 1026.2 -9.9 -9.999 -99.9 -99.99 -9.99
2019/12/12 04:48 CST    1.15   2.24    4   56    6  45.3  64.6 1026.1 -9.9 -9.999 -99.9 -99.99 -9.99
2019/12/12 04:54 CST    1.15   2.22    4   49    6  45.5  64.6 1026.1 -9.9 -9.999 -99.9 -99.99 -9.99
2019/12/12 05:00 CST    1.15   2.22    4   57    6  45.7  64.6 1026.0 -9.9 -9.999 -99.9 -99.99 -9.99
2019/12/12 05:06 CST    1.15   2.22    5   66    7  45.9  64.6 1026.0 -9.9 -9.999 -99.9 -99.99 -9.99
2019/12/12 05:12 CST    1.15   2.23    4   54    7  46.0  64.6 1026.0 -9.9 -9.999 -99.9 -99.99 -9.99
2019/12/12 05:18 CST    1.15   2.25    4   39    6  46.0  64.6 1026.1 -9.9 -9.999 -99.9 -99.99 -9.99
2019/12/12 05:24 CST    1.14   2.27    4   41    5  45.9  64.6 1025.9 -9.9 -9.999 -99.9 -99.99 -9.99
2019/12/12 05:30 CST    1.14   2.27    5   46    6  45.9  64.6 1025.9 -9.9 -9.999 -99.9 -99.99 -9.99
2019/12/12 05:36 CST    1.14   2.30    4   40    6  45.9  64.6 1025.9 -9.9 -9.999 -99.9 -99.99 -9.99
2019/12/12 05:42 CST    1.14   2.31    4   34    6  45.7  64.6 1025.7 -9.9 -9.999 -99.9 -99.99 -9.99
2019/12/12 05:48 CST    1.13   2.35    4   27    6  45.5  64.6 1025.5 -9.9 -9.999 -99.9 -99.99 -9.99
2019/12/12 05:54 CST    1.13   2.39    4   33    6  45.3  64.6 1025.6 -9.9 -9.999 -99.9 -99.99 -9.99
2019/12/12 06:00 CST    1.12   2.39    4   48    6  45.3  64.6 1025.6 -9.9 -9.999 -99.9 -99.99 -9.99
2019/12/12 06:06 CST    1.12   2.38    4   43    6  45.0  64.6 1025.6 -9.9 -9.999 -99.9 -99.99 -9.99
2019/12/12 06:12 CST    1.11   2.40    4   41    5  45.0  64.6 1025.6 -9.9 -9.999 -99.9 -99.99 -9.99
2019/12/12 06:18 CST    1.10   2.41    4   49    6  45.1  64.6 1025.5 -9.9 -9.999 -99.9 -99.99 -9.99
2019/12/12 06:24 CST    1.09   2.41    5   50    7  45.5  64.6 1025.5 -9.9 -9.999 -99.9 -99.99 -9.99
2019/12/12 06:30 CST    1.08   2.41    4   50    7  45.3  64.6 1025.4 -9.9 -9.999 -99.9 -99.99 -9.99
2019/12/12 06:36 CST    1.07   2.43    6   56    8  45.7  64.6 1025.4 -9.9 -9.999 -99.9 -99.99 -9.99
2019/12/12 06:42 CST    1.06   2.41    6   54    8  45.7  64.6 1025.4 -9.9 -9.999 -99.9 -99.99 -9.99
2019/12/12 06:48 CST    1.05   2.41    3   37    7  45.3  64.4 1025.4 -9.9 -9.999 -99.9 -99.99 -9.99
2019/12/12 06:54 CST    1.04   2.42    4   45    6  45.0  64.4 1025.4 -9.9 -9.999 -99.9 -99.99 -9.99
2019/12/12 07:00 CST    1.03   2.40    3   22    5  44.6  64.4 1025.5 -9.9 -9.999 -99.9 -99.99 -9.99
2019/12/12 07:06 CST    1.02   2.38    4   32    5  44.6  64.4 1025.5 -9.9 -9.999 -99.9 -99.99 -9.99
2019/12/12 07:12 CST    1.00   2.42    5   40    6  44.2  64.4 1025.4 -9.9 -9.999 -99.9 -99.99 -9.99
2019/12/12 07:18 CST    0.99   2.43    4   48    6  44.1  64.4 1025.3 -9.9 -9.999 -99.9 -99.99 -9.99
2019/12/12 07:24 CST    0.97   2.38    5   50    7  44.6  64.4 1025.2 -9.9 -9.999 -99.9 -99.99 -9.99
2019/12/12 07:30 CST    0.95   2.39    7   55    8  44.8  64.4 1025.2 -9.9 -9.999 -99.9 -99.99 -9.99
2019/12/12 07:36 CST    0.94   2.35    7   55    9  45.0  64.4 1025.3 -9.9 -9.999 -99.9 -99.99 -9.99
2019/12/12 07:42 CST    0.92   2.35    6   56   10  45.0  64.4 1025.3 -9.9 -9.999 -99.9 -99.99 -9.99
2019/12/12 07:48 CST    0.90   2.33    7   55   10  45.1  64.4 1025.3 -9.9 -9.999 -99.9 -99.99 -9.99
2019/12/12 07:54 CST    0.88   2.30    7   56    9  45.3  64.2 1025.3 -9.9 -9.999 -99.9 -99.99 -9.99
2019/12/12 08:00 CST    0.86   2.28    6   53    8  45.5  64.2 1025.3 -9.9 -9.999 -99.9 -99.99 -9.99
2019/12/12 08:06 CST    0.84   2.24    6   53    9  45.7  64.2 1025.4 -9.9 -9.999 -99.9 -99.99 -9.99
2019/12/12 08:12 CST    0.82   2.20    4   55    8  46.0  64.2 1025.4 -9.9 -9.999 -99.9 -99.99 -9.99
2019/12/12 08:18 CST    0.80   2.15    4   47    6  46.0  64.2 1025.4 -9.9 -9.999 -99.9 -99.99 -9.99
2019/12/12 08:24 CST    0.77   2.16    6   56    7  46.2  64.2 1025.5 -9.9 -9.999 -99.9 -99.99 -9.99
2019/12/12 08:30 CST    0.75   2.11    6   55    7  46.6  64.0 1025.6 -9.9 -9.999 -99.9 -99.99 -9.99
2019/12/12 08:36 CST    0.72   2.07    6   52    9  46.9  63.9 1025.6 -9.9 -9.999 -99.9 -99.99 -9.99
2019/12/12 08:42 CST    0.70   2.05    5   57    8  47.5  63.9 1025.6 -9.9 -9.999 -99.9 -99.99 -9.99
2019/12/12 08:48 CST    0.67   2.04    7   74    9  48.4  63.9 1025.6 -9.9 -9.999 -99.9 -99.99 -9.99
2019/12/12 08:54 CST    0.64   2.00    8   70   11  48.4  63.9 1025.6 -9.9 -9.999 -99.9 -99.99 -9.99
2019/12/12 09:00 CST    0.61   1.97    7   77    9  48.9  63.9 1025.6 -9.9 -9.999 -99.9 -99.99 -9.99
2019/12/12 09:06 CST    0.58   1.98    6   68    9  49.1  63.9 1025.7 -9.9 -9.999 -99.9 -99.99 -9.99
2019/12/12 09:12 CST    0.55   1.94    7   61    9  48.7  63.7 1025.8 -9.9 -9.999 -99.9 -99.99 -9.99
2019/12/12 09:18 CST    0.52   1.91    6   54    8  48.9  63.7 1025.8 -9.9 -9.999 -99.9 -99.99 -9.99
2019/12/12 09:24 CST    0.49   1.88    6   55    8  49.6  63.7 1025.8 -9.9 -9.999 -99.9 -99.99 -9.99
2019/12/12 09:30 CST    0.46   1.83    7   58    9  49.8  63.7 1025.7 -9.9 -9.999 -99.9 -99.99 -9.99
2019/12/12 09:36 CST    0.43   1.83    6   60    8  50.4  63.7 1025.6 -9.9 -9.999 -99.9 -99.99 -9.99
2019/12/12 09:42 CST    0.39   1.80    7   63    9  50.2  63.7 1025.6 -9.9 -9.999 -99.9 -99.99 -9.99
2019/12/12 09:48 CST    0.36   1.78    7   57    9  50.5  63.7 1025.6 -9.9 -9.999 -99.9 -99.99 -9.99
2019/12/12 09:54 CST    0.33   1.75    4   55    8  51.4  63.7 1025.5 -9.9 -9.999 -99.9 -99.99 -9.99
2019/12/12 10:00 CST    0.29   1.71    5   67    7  52.0  63.7 1025.5 -9.9 -9.999 -99.9 -99.99 -9.99
2019/12/12 10:06 CST    0.26   1.69    5   73    7  52.5  63.7 1025.4 -9.9 -9.999 -99.9 -99.99 -9.99
2019/12/12 10:12 CST    0.23   1.67    5   65    6  52.5  63.7 1025.4 -9.9 -9.999 -99.9 -99.99 -9.99
2019/12/12 10:18 CST    0.19   1.67    4   56    7  53.1  63.7 1025.6 -9.9 -9.999 -99.9 -99.99 -9.99
2019/12/12 10:24 CST    0.16   1.66    3   51    4  53.6  63.7 1025.7 -9.9 -9.999 -99.9 -99.99 -9.99
2019/12/12 10:30 CST    0.13   1.66    2   75    4  54.3  63.7 1025.6 -9.9 -9.999 -99.9 -99.99 -9.99
2019/12/12 10:36 CST    0.09   1.65    4   86    6  55.6  63.7 1025.5 -9.9 -9.999 -99.9 -99.99 -9.99
2019/12/12 10:42 CST    0.06   1.58    3   82    6  55.2  63.5 1025.4 -9.9 -9.999 -99.9 -99.99 -9.99
2019/12/12 10:48 CST    0.03   1.55    3   95    6  55.9  63.7 1025.4 -9.9 -9.999 -99.9 -99.99 -9.99
2019/12/12 10:54 CST   -0.01   1.50    3  146    5  56.3  63.5 1025.3 -9.9 -9.999 -99.9 -99.99 -9.99
2019/12/12 11:00 CST   -0.04   1.47    4  188    7  56.8  63.5 1025.2 -9.9 -9.999 -99.9 -99.99 -9.99
2019/12/12 11:06 CST   -0.07   1.48    6  200   11  57.4  63.9 1025.1 -9.9 -9.999 -99.9 -99.99 -9.99
2019/12/12 11:12 CST   -0.10   1.40    4  182    8  56.8  63.7 1025.1 -9.9 -9.999 -99.9 -99.99 -9.99
2019/12/12 11:18 CST   -0.13   1.37    3  133    6  56.7  63.7 1024.9 -9.9 -9.999 -99.9 -99.99 -9.99
2019/12/12 11:24 CST   -0.16   1.34    2  175    5  57.7  63.9 1024.7 -9.9 -9.999 -99.9 -99.99 -9.99
2019/12/12 11:30 CST   -0.19   1.33    3  111    5  58.1  63.9 1024.5 -9.9 -9.999 -99.9 -99.99 -9.99
2019/12/12 11:36 CST   -0.22   1.18    3  192    6  58.1  63.9 1024.5 -9.9 -9.999 -99.9 -99.99 -9.99
2019/12/12 11:42 CST   -0.24   1.18    2  117    4  58.5  63.7 1024.2 -9.9 -9.999 -99.9 -99.99 -9.99
2019/12/12 11:48 CST   -0.27   1.12    4   66    6  58.1  63.7 1024.1 -9.9 -9.999 -99.9 -99.99 -9.99
2019/12/12 11:54 CST   -0.30   1.10    4   60    8  58.3  63.7 1024.1 -9.9 -9.999 -99.9 -99.99 -9.99
2019/12/12 12:00 CST   -0.32   1.07    5   72    7  58.3  63.7 1023.9 -9.9 -9.999 -99.9 -99.99 -9.99
2019/12/12 12:06 CST   -0.35   1.00    5   69    6  58.1  63.7 1024.0 -9.9 -9.999 -99.9 -99.99 -9.99
2019/12/12 12:12 CST   -0.37   0.96    4   74    5  58.6  63.7 1023.7 -9.9 -9.999 -99.9 -99.99 -9.99
2019/12/12 12:18 CST   -0.40   0.93    3   66    6  59.0  63.7 1023.6 -9.9 -9.999 -99.9 -99.99 -9.99
2019/12/12 12:24 CST   -0.42   0.93    3   46    4  59.2  64.0 1023.6 -9.9 -9.999 -99.9 -99.99 -9.99
2019/12/12 12:30 CST   -0.44   0.87    4   38    5  59.2  64.2 1023.4 -9.9 -9.999 -99.9 -99.99 -9.99
2019/12/12 12:36 CST   -0.46   0.84    4   74    6  60.1  64.4 1023.2 -9.9 -9.999 -99.9 -99.99 -9.99
2019/12/12 12:42 CST   -0.48   0.81    4   47    5  59.9  64.4 1023.0 -9.9 -9.999 -99.9 -99.99 -9.99
2019/12/12 12:48 CST   -0.50   0.77    4   58    6  60.1  64.4 1022.9 -9.9 -9.999 -99.9 -99.99 -9.99
2019/12/12 12:54 CST   -0.52   0.74    5   79    7  60.1  64.2 1022.7 -9.9 -9.999 -99.9 -99.99 -9.99
2019/12/12 13:00 CST   -0.54   0.72    4   44    7  60.3  64.2 1022.6 -9.9 -9.999 -99.9 -99.99 -9.99
2019/12/12 13:06 CST   -0.55   0.72    5   70    7  61.0  64.4 1022.5 -9.9 -9.999 -99.9 -99.99 -9.99
2019/12/12 13:12 CST   -0.57   0.72    5   68    7  61.0  64.4 1022.3 -9.9 -9.999 -99.9 -99.99 -9.99
2019/12/12 13:18 CST   -0.58   0.65    2   40    4  61.3  64.2 1022.3 -9.9 -9.999 -99.9 -99.99 -9.99
2019/12/12 13:24 CST   -0.59   0.70    3   74    5  61.5  64.2 1022.1 -9.9 -9.999 -99.9 -99.99 -9.99
2019/12/12 13:30 CST   -0.61   0.61    1   99    4  62.6  64.2 1022.0 -9.9 -9.999 -99.9 -99.99 -9.99
2019/12/12 13:36 CST   -0.62   0.59    4   76    5  61.9  64.2 1021.9 -9.9 -9.999 -99.9 -99.99 -9.99
2019/12/12 13:42 CST   -0.62   0.55    3   93    5  62.1  64.4 1021.7 -9.9 -9.999 -99.9 -99.99 -9.99
2019/12/12 13:48 CST   -0.63   0.62    3   84    8  62.2  64.4 1021.7 -9.9 -9.999 -99.9 -99.99 -9.99
2019/12/12 13:54 CST   -0.64   0.63    4   44    7  61.5  64.4 1021.6 -9.9 -9.999 -99.9 -99.99 -9.99
2019/12/12 14:00 CST   -0.64   0.61    3   48    5  61.5  64.4 1021.6 -9.9 -9.999 -99.9 -99.99 -9.99
2019/12/12 14:06 CST   -0.64   0.63    3   77    6  61.5  64.4 1021.6 -9.9 -9.999 -99.9 -99.99 -9.99
2019/12/12 14:12 CST   -0.65   0.59    2   49    4  61.9  64.4 1021.6 -9.9 -9.999 -99.9 -99.99 -9.99
2019/12/12 14:18 CST   -0.65   0.60    4   57    7  61.7  64.4 1021.4 -9.9 -9.999 -99.9 -99.99 -9.99
2019/12/12 14:24 CST   -0.65   0.63    2   82    4  61.9  64.6 1021.3 -9.9 -9.999 -99.9 -99.99 -9.99
2019/12/12 14:30 CST   -0.64   0.67    3   57    4  61.7  64.8 1021.2 -9.9 -9.999 -99.9 -99.99 -9.99
2019/12/12 14:36 CST   -0.64   0.65    3   91    4  61.9  64.8 1021.1 -9.9 -9.999 -99.9 -99.99 -9.99
2019/12/12 14:42 CST   -0.64   0.67    3   78    5  61.7  64.8 1021.1 -9.9 -9.999 -99.9 -99.99 -9.99
2019/12/12 14:48 CST   -0.63   0.68    4   81    6  61.7  64.8 1020.9 -9.9 -9.999 -99.9 -99.99 -9.99
2019/12/12 14:54 CST   -0.62   0.67    5   82    6  61.7  64.8 1020.9 -9.9 -9.999 -99.9 -99.99 -9.99
2019/12/12 15:00 CST   -0.61   0.72    4   73    6  61.9  64.8 1021.0 -9.9 -9.999 -99.9 -99.99 -9.99
2019/12/12 15:06 CST   -0.60   0.72    4   68    5  61.9  64.8 1020.9 -9.9 -9.999 -99.9 -99.99 -9.99
2019/12/12 15:12 CST   -0.59   0.71    3   78    5  61.9  64.8 1020.8 -9.9 -9.999 -99.9 -99.99 -9.99
2019/12/12 15:18 CST   -0.58   0.76    3   67    5  62.2  64.8 1020.8 -9.9 -9.999 -99.9 -99.99 -9.99
2019/12/12 15:24 CST   -0.57   0.73    4   87    5  62.2  64.8 1020.6 -9.9 -9.999 -99.9 -99.99 -9.99
2019/12/12 15:30 CST   -0.55   0.75    4   94    5  61.7  64.8 1020.5 -9.9 -9.999 -99.9 -99.99 -9.99
2019/12/12 15:36 CST   -0.53   0.77    3   63    5  61.7  64.8 1020.4 -9.9 -9.999 -99.9 -99.99 -9.99
2019/12/12 15:42 CST   -0.51   0.77    4   89    6  61.7  64.8 1020.3 -9.9 -9.999 -99.9 -99.99 -9.99
2019/12/12 15:48 CST   -0.49   0.75    5   85    6  61.9  64.8 1020.2 -9.9 -9.999 -99.9 -99.99 -9.99
2019/12/12 15:54 CST   -0.47   0.76    2   97    5  62.1  64.8 1020.2 -9.9 -9.999 -99.9 -99.99 -9.99
2019/12/12 16:00 CST   -0.45   0.81    4  106    7  61.7  64.8 1020.2 -9.9 -9.999 -99.9 -99.99 -9.99
2019/12/12 16:06 CST   -0.42   0.82    3  125    5  61.3  64.8 1020.2 -9.9 -9.999 -99.9 -99.99 -9.99
2019/12/12 16:12 CST   -0.40   0.88    2  113    6  61.5  64.8 1020.1 -9.9 -9.999 -99.9 -99.99 -9.99
2019/12/12 16:18 CST   -0.37   0.95    2  110    5  61.5  64.8 1020.1 -9.9 -9.999 -99.9 -99.99 -9.99
2019/12/12 16:24 CST   -0.34   0.96    3   95    7  61.2  64.8 1020.0 -9.9 -9.999 -99.9 -99.99 -9.99
2019/12/12 16:30 CST   -0.31   0.95    4   90    6  61.5  64.8 1019.9 -9.9 -9.999 -99.9 -99.99 -9.99
2019/12/12 16:36 CST   -0.28   1.02    5   88    9  61.5  64.8 1019.9 -9.9 -9.999 -99.9 -99.99 -9.99
2019/12/12 16:42 CST   -0.24   1.04    5   72    6  61.5  64.8 1019.9 -9.9 -9.999 -99.9 -99.99 -9.99
2019/12/12 16:48 CST   -0.21   1.06    5   71    7  61.3  64.8 1019.9 -9.9 -9.999 -99.9 -99.99 -9.99
2019/12/12 16:54 CST   -0.17   1.07    5   70    6  61.3  64.8 1019.9 -9.9 -9.999 -99.9 -99.99 -9.99
2019/12/12 17:00 CST   -0.13   1.09    4   69    6  61.2  64.8 1019.9 -9.9 -9.999 -99.9 -99.99 -9.99
2019/12/12 17:06 CST   -0.09   1.13    2   78    4  61.2  64.8 1019.9 -9.9 -9.999 -99.9 -99.99 -9.99
2019/12/12 17:12 CST   -0.05   1.17    2   81    3  61.0  64.9 1019.8 -9.9 -9.999 -99.9 -99.99 -9.99
2019/12/12 17:18 CST   -0.01   1.20    2   91    5  60.8  64.9 1019.7 -9.9 -9.999 -99.9 -99.99 -9.99
2019/12/12 17:24 CST    0.03   1.25    2  130    4  60.8  64.9 1019.6 -9.9 -9.999 -99.9 -99.99 -9.99
2019/12/12 17:30 CST    0.08   1.30    1  181    3  61.0  64.9 1019.6 -9.9 -9.999 -99.9 -99.99 -9.99
2019/12/12 17:36 CST    0.12   1.38    2  181    6  60.4  64.9 1019.5 -9.9 -9.999 -99.9 -99.99 -9.99
2019/12/12 17:42 CST    0.16   1.43    2  190    4  60.6  64.9 1019.5 -9.9 -9.999 -99.9 -99.99 -9.99
2019/12/12 17:48 CST    0.21   1.45    2  142    3  60.6  64.9 1019.5 -9.9 -9.999 -99.9 -99.99 -9.99
2019/12/12 17:54 CST    0.25   1.47    1  104    4  60.3  64.9 1019.4 -9.9 -9.999 -99.9 -99.99 -9.99
2019/12/12 18:00 CST    0.30   1.51    2   64    4  60.3  64.9 1019.3 -9.9 -9.999 -99.9 -99.99 -9.99
2019/12/12 18:06 CST    0.34   1.52    2  180    5  60.6  64.9 1019.3 -9.9 -9.999 -99.9 -99.99 -9.99
2019/12/12 18:12 CST    0.39   1.60    1  139    5  60.4  64.9 1019.3 -9.9 -9.999 -99.9 -99.99 -9.99
2019/12/12 18:18 CST    0.43   1.65    1  132    2  60.3  64.9 1019.3 -9.9 -9.999 -99.9 -99.99 -9.99
2019/12/12 18:24 CST    0.47   1.71    2   52    3  60.3  64.9 1019.3 -9.9 -9.999 -99.9 -99.99 -9.99
2019/12/12 18:30 CST    0.52   1.75    2  102    4  60.1  64.8 1019.3 -9.9 -9.999 -99.9 -99.99 -9.99
2019/12/12 18:36 CST    0.56   1.76    2  125    3  60.3  64.8 1019.3 -9.9 -9.999 -99.9 -99.99 -9.99
2019/12/12 18:42 CST    0.61   1.79    3  167    4  60.4  64.8 1019.2 -9.9 -9.999 -99.9 -99.99 -9.99
2019/12/12 18:48 CST    0.65   1.86    1  193    4  60.3  64.8 1019.2 -9.9 -9.999 -99.9 -99.99 -9.99
2019/12/12 18:54 CST    0.69   1.94    1   67    2  59.9  64.8 1019.2 -9.9 -9.999 -99.9 -99.99 -9.99
2019/12/12 19:00 CST    0.73   1.94    2   13    3  59.4  64.8 1019.2 -9.9 -9.999 -99.9 -99.99 -9.99
2019/12/12 19:06 CST    0.77   1.97    1  349    2  59.0  64.8 1019.3 -9.9 -9.999 -99.9 -99.99 -9.99
2019/12/12 19:12 CST    0.82   2.02    1  330    3  58.6  64.8 1019.3 -9.9 -9.999 -99.9 -99.99 -9.99
2019/12/12 19:18 CST    0.86   2.02    0  231    2  58.5  64.9 1019.3 -9.9 -9.999 -99.9 -99.99 -9.99
2019/12/12 19:24 CST    0.90   2.05    2  323    2  58.5  64.9 1019.3 -9.9 -9.999 -99.9 -99.99 -9.99
2019/12/12 19:30 CST    0.93   2.10    2  334    2  58.5  64.9 1019.4 -9.9 -9.999 -99.9 -99.99 -9.99
2019/12/12 19:36 CST    0.97   2.11    1  290    3  57.9  64.9 1019.3 -9.9 -9.999 -99.9 -99.99 -9.99
2019/12/12 19:42 CST    1.01   2.14    1  261    2  58.1  64.9 1019.3 -9.9 -9.999 -99.9 -99.99 -9.99
2019/12/12 19:48 CST    1.05   2.18    1   25    2  59.7  64.9 1019.3 -9.9 -9.999 -99.9 -99.99 -9.99
2019/12/12 19:54 CST    1.08   2.19    1  203    2  59.0  64.9 1019.3 -9.9 -9.999 -99.9 -99.99 -9.99
2019/12/12 20:00 CST    1.12   2.21    0  252    1  58.6  64.9 1019.3 -9.9 -9.999 -99.9 -99.99 -9.99
2019/12/12 20:06 CST    1.15   2.24    1  308    1  57.4  64.9 1019.3 -9.9 -9.999 -99.9 -99.99 -9.99
2019/12/12 20:12 CST    1.18   2.25    1  279    1  57.0  64.9 1019.3 -9.9 -9.999 -99.9 -99.99 -9.99
2019/12/12 20:18 CST    1.21   2.28    1  285    2  57.0  64.9 1019.3 -9.9 -9.999 -99.9 -99.99 -9.99
2019/12/12 20:24 CST    1.24   2.31    2  310    2  56.8  64.9 1019.3 -9.9 -9.999 -99.9 -99.99 -9.99
2019/12/12 20:30 CST    1.27   2.33    1  312    2  56.8  64.9 1019.3 -9.9 -9.999 -99.9 -99.99 -9.99
2019/12/12 20:36 CST    1.30   2.36    1  289    1  56.8  64.9 1019.2 -9.9 -9.999 -99.9 -99.99 -9.99
2019/12/12 20:42 CST    1.33   2.39    1  261    3  57.2  64.9 1019.2 -9.9 -9.999 -99.9 -99.99 -9.99
2019/12/12 20:48 CST    1.35   2.41    1  315    1  56.8  64.9 1019.1 -9.9 -9.999 -99.9 -99.99 -9.99
2019/12/12 20:54 CST    1.37   2.43    1  262    1  56.8  64.9 1019.1 -9.9 -9.999 -99.9 -99.99 -9.99
2019/12/12 21:00 CST    1.40   2.44    0  260    1  56.8  64.9 1019.1 -9.9 -9.999 -99.9 -99.99 -9.99
2019/12/12 21:06 CST    1.42   2.46    1  279    1  57.2  64.9 1019.0 -9.9 -9.999 -99.9 -99.99 -9.99
2019/12/12 21:12 CST    1.43   2.48    2  322    2  56.7  64.9 1019.1 -9.9 -9.999 -99.9 -99.99 -9.99
2019/12/12 21:18 CST    1.45   2.48    2  287    3  56.3  64.9 1019.1 -9.9 -9.999 -99.9 -99.99 -9.99
2019/12/12 21:24 CST    1.47   2.50    1  293    3  56.3  64.9 1019.0 -9.9 -9.999 -99.9 -99.99 -9.99
2019/12/12 21:30 CST    1.48   2.53    1  312    3  56.5  64.9 1018.9 -9.9 -9.999 -99.9 -99.99 -9.99
2019/12/12 21:36 CST    1.49   2.54    1  270    2  56.8  64.9 1018.9 -9.9 -9.999 -99.9 -99.99 -9.99
2019/12/12 21:42 CST    1.51   2.57    1  210    2  57.9  64.9 1018.8 -9.9 -9.999 -99.9 -99.99 -9.99
2019/12/12 21:48 CST    1.52   2.60    3  185    4  58.6  64.9 1018.7 -9.9 -9.999 -99.9 -99.99 -9.99
2019/12/12 21:54 CST    1.53   2.62    3  186    4  58.6  64.9 1018.8 -9.9 -9.999 -99.9 -99.99 -9.99
2019/12/12 22:00 CST    1.53   2.62    4  178    6  58.8  64.9 1018.8 -9.9 -9.999 -99.9 -99.99 -9.99
2019/12/12 22:06 CST    1.54   2.62    4  188    6  58.5  64.9 1018.9 -9.9 -9.999 -99.9 -99.99 -9.99
2019/12/12 22:12 CST    1.54   2.62    5  185    7  58.5  64.9 1018.8 -9.9 -9.999 -99.9 -99.99 -9.99
2019/12/12 22:18 CST    1.55   2.61    6  185    8  58.5  64.9 1018.8 -9.9 -9.999 -99.9 -99.99 -9.99
2019/12/12 22:24 CST    1.55   2.60    4  180    8  58.5  64.9 1018.8 -9.9 -9.999 -99.9 -99.99 -9.99
2019/12/12 22:30 CST    1.55   2.60    5  196    8  58.5  64.9 1018.8 -9.9 -9.999 -99.9 -99.99 -9.99
2019/12/12 22:36 CST    1.55   2.60    4  189    6  58.6  64.9 1018.6 -9.9 -9.999 -99.9 -99.99 -9.99
2019/12/12 22:42 CST    1.56   2.59    6  201    7  58.5  64.9 1018.6 -9.9 -9.999 -99.9 -99.99 -9.99
2019/12/12 22:48 CST    1.55   2.60    4  198    6  58.6  64.9 1018.5 -9.9 -9.999 -99.9 -99.99 -9.99
2019/12/12 22:54 CST    1.55   2.61    5  180    6  58.5  64.9 1018.5 -9.9 -9.999 -99.9 -99.99 -9.99
2019/12/12 23:00 CST    1.55   2.60    6  186    8  58.6  64.9 1018.3 -9.9 -9.999 -99.9 -99.99 -9.99
2019/12/12 23:06 CST    1.55   2.59    3  183    7  58.6  64.9 1018.2 -9.9 -9.999 -99.9 -99.99 -9.99
2019/12/12 23:12 CST    1.55   2.59    2   64    4  58.6  64.9 1018.2 -9.9 -9.999 -99.9 -99.99 -9.99
2019/12/12 23:18 CST    1.54   2.57    1   13    3  58.1  64.9 1018.2 -9.9 -9.999 -99.9 -99.99 -9.99
2019/12/12 23:24 CST    1.54   2.55    1    4    3  57.6  64.9 1018.0 -9.9 -9.999 -99.9 -99.99 -9.99
2019/12/12 23:30 CST    1.54   2.54    1  181    2  57.9  64.9 1017.9 -9.9 -9.999 -99.9 -99.99 -9.99
2019/12/12 23:36 CST    1.53   2.52    3  165    5  58.6  64.9 1017.7 -9.9 -9.999 -99.9 -99.99 -9.99
2019/12/12 23:42 CST    1.53   2.52    5  183    8  58.3  64.9 1017.8 -9.9 -9.999 -99.9 -99.99 -9.99
2019/12/12 23:48 CST    1.52   2.49    3  199    6  58.5  64.9 1017.8 -9.9 -9.999 -99.9 -99.99 -9.99
2019/12/12 23:54 CST    1.51   2.49    4  182    8  58.3  64.9 1017.7 -9.9 -9.999 -99.9 -99.99 -9.99
2019/12/13 00:00 CST    1.51   2.49    1   99    5  58.1  64.9 1017.7 -9.9 -9.999 -99.9 -99.99 -9.99
2019/12/13 00:06 CST    1.50   2.49    3   81    5  58.6  64.9 1017.7 -9.9 -9.999 -99.9 -99.99 -9.99
2019/12/13 00:12 CST    1.49   2.48    3  125    5  58.5  64.9 1017.6 -9.9 -9.999 -99.9 -99.99 -9.99
2019/12/13 00:18 CST    1.49   2.47    4  183    8  58.8  64.9 1017.6 -9.9 -9.999 -99.9 -99.99 -9.99
2019/12/13 00:24 CST    1.48   2.46    4  162    8  58.6  64.9 1017.7 -9.9 -9.999 -99.9 -99.99 -9.99
2019/12/13 00:30 CST    1.47   2.45    4  163    7  59.0  64.9 1017.7 -9.9 -9.999 -99.9 -99.99 -9.99
2019/12/13 00:36 CST    1.46   2.43    4  148    6  58.6  64.9 1017.6 -9.9 -9.999 -99.9 -99.99 -9.99
2019/12/13 00:42 CST    1.45   2.44    5  149    8  58.3  64.9 1017.3 -9.9 -9.999 -99.9 -99.99 -9.99
2019/12/13 00:48 CST    1.45   2.44    5  146    7  58.3  64.8 1017.2 -9.9 -9.999 -99.9 -99.99 -9.99
2019/12/13 00:54 CST    1.44   2.44    4  156    8  58.5  64.8 1017.2 -9.9 -9.999 -99.9 -99.99 -9.99
2019/12/13 01:00 CST    1.43   2.44    4  164    8  58.3  64.8 1017.2 -9.9 -9.999 -99.9 -99.99 -9.99
2019/12/13 01:06 CST    1.42   2.44    2  171    7  58.3  64.8 1017.3 -9.9 -9.999 -99.9 -99.99 -9.99
2019/12/13 01:12 CST    1.41   2.44    3  184    5  58.6  64.8 1017.2 -9.9 -9.999 -99.9 -99.99 -9.99
2019/12/13 01:18 CST    1.40   2.44    4  179    6  58.1  64.8 1017.3 -9.9 -9.999 -99.9 -99.99 -9.99
2019/12/13 01:24 CST    1.40   2.45    3  188    5  58.3  64.8 1017.3 -9.9 -9.999 -99.9 -99.99 -9.99
2019/12/13 01:30 CST    1.39   2.46    4  136    6  58.3  64.8 1017.2 -9.9 -9.999 -99.9 -99.99 -9.99
2019/12/13 01:36 CST    1.38   2.46    2  168    7  58.6  64.8 1017.2 -9.9 -9.999 -99.9 -99.99 -9.99
2019/12/13 01:42 CST    1.37   2.46    3  146    4  58.6  64.8 1017.1 -9.9 -9.999 -99.9 -99.99 -9.99
2019/12/13 01:48 CST    1.37   2.47    2  162    4  58.8  64.8 1017.0 -9.9 -9.999 -99.9 -99.99 -9.99
2019/12/13 01:54 CST    1.36   2.46    1  163    4  58.6  64.8 1016.9 -9.9 -9.999 -99.9 -99.99 -9.99
2019/12/13 02:00 CST    1.35   2.46    3  136    4  58.6  64.8 1017.0 -9.9 -9.999 -99.9 -99.99 -9.99
2019/12/13 02:06 CST    1.34   2.48    4  139    6  58.8  64.8 1016.8 -9.9 -9.999 -99.9 -99.99 -9.99
2019/12/13 02:12 CST    1.34   2.47    2  179    5  59.4  64.8 1016.7 -9.9 -9.999 -99.9 -99.99 -9.99
2019/12/13 02:18 CST    1.33   2.46    4  175    7  59.2  64.8 1016.6 -9.9 -9.999 -99.9 -99.99 -9.99
2019/12/13 02:24 CST    1.32   2.46    3  156    5  59.0  64.8 1016.5 -9.9 -9.999 -99.9 -99.99 -9.99
2019/12/13 02:30 CST    1.32   2.46    3  180    6  59.4  64.9 1016.3 -9.9 -9.999 -99.9 -99.99 -9.99
2019/12/13 02:36 CST    1.31   2.44    4  154    6  59.0  64.8 1016.2 -9.9 -9.999 -99.9 -99.99 -9.99
2019/12/13 02:42 CST    1.31   2.44    4  152    6  58.8  64.8 1016.1 -9.9 -9.999 -99.9 -99.99 -9.99
2019/12/13 02:48 CST    1.30   2.42    3  155    6  59.0  64.9 1016.0 -9.9 -9.999 -99.9 -99.99 -9.99
2019/12/13 02:54 CST    1.29   2.41 -999 -999 -999 -99.9 -99.9 -999.9 -9.9 -9.999 -99.9 -99.99 -9.99
2019/12/13 03:00 CST    1.29   2.41    3  173    4  58.8  64.9 1015.9 -9.9 -9.999 -99.9 -99.99 -9.99
2019/12/13 03:06 CST    1.28   2.39    1  195    5  59.0  64.9 1015.8 -9.9 -9.999 -99.9 -99.99 -9.99
2019/12/13 03:12 CST    1.28   2.38    2  176    5  59.0  64.9 1015.8 -9.9 -9.999 -99.9 -99.99 -9.99
2019/12/13 03:18 CST    1.27   2.38    3  173    6  59.0  64.9 1015.7 -9.9 -9.999 -99.9 -99.99 -9.99
2019/12/13 03:24 CST    1.26   2.33    3  172    5  58.6  64.8 1015.5 -9.9 -9.999 -99.9 -99.99 -9.99
2019/12/13 03:30 CST    1.26   2.34    4  132    6  58.3  64.8 1015.3 -9.9 -9.999 -99.9 -99.99 -9.99
2019/12/13 03:36 CST    1.25   2.35    4  193    5  58.1  64.8 1015.3 -9.9 -9.999 -99.9 -99.99 -9.99
2019/12/13 03:42 CST    1.25   2.32    4  188    5  58.3  64.8 1015.3 -9.9 -9.999 -99.9 -99.99 -9.99
2019/12/13 03:48 CST    1.24   2.34    4  180    6  58.5  64.8 1015.1 -9.9 -9.999 -99.9 -99.99 -9.99
2019/12/13 03:54 CST    1.24   2.31    4  185    6  58.6  64.8 1015.1 -9.9 -9.999 -99.9 -99.99 -9.99
2019/12/13 04:00 CST    1.23   2.29    3  183    4  58.8  64.8 1015.1 -9.9 -9.999 -99.9 -99.99 -9.99
2019/12/13 04:06 CST    1.23   2.23    1  203    3  58.6  64.8 1015.0 -9.9 -9.999 -99.9 -99.99 -9.99
2019/12/13 04:12 CST    1.22   2.23    1  211    2  58.5  64.8 1014.9 -9.9 -9.999 -99.9 -99.99 -9.99
2019/12/13 04:18 CST    1.22   2.25    1  193    2  58.6  64.8 1014.7 -9.9 -9.999 -99.9 -99.99 -9.99
2019/12/13 04:24 CST    1.21   2.23    2  212    4  59.0  64.8 1014.7 -9.9 -9.999 -99.9 -99.99 -9.99
2019/12/13 04:30 CST    1.21   2.23    1  207    2  58.6  64.8 1014.7 -9.9 -9.999 -99.9 -99.99 -9.99
2019/12/13 04:36 CST    1.21   2.26    1  222    2  58.6  64.8 1014.8 -9.9 -9.999 -99.9 -99.99 -9.99
2019/12/13 04:42 CST    1.20   2.25    1  228    2  58.8  64.8 1014.8 -9.9 -9.999 -99.9 -99.99 -9.99
2019/12/13 04:48 CST    1.20   2.24    1  275    2  58.5  64.8 1014.6 -9.9 -9.999 -99.9 -99.99 -9.99
2019/12/13 04:54 CST    1.20   2.27    2  273    3  58.1  64.8 1014.6 -9.9 -9.999 -99.9 -99.99 -9.99
2019/12/13 05:00 CST    1.20   2.24    2  276    3  58.1  64.8 1014.5 -9.9 -9.999 -99.9 -99.99 -9.99
2019/12/13 05:06 CST    1.19   2.23    1  259    3  58.3  64.8 1014.6 -9.9 -9.999 -99.9 -99.99 -9.99
2019/12/13 05:12 CST    1.19   2.18    1  308    3  57.9  64.8 1014.4 -9.9 -9.999 -99.9 -99.99 -9.99
2019/12/13 05:18 CST    1.19   2.23    0  307    2  57.7  64.8 1014.2 -9.9 -9.999 -99.9 -99.99 -9.99
2019/12/13 05:24 CST    1.19   2.23    1  315    1  57.9  64.8 1014.3 -9.9 -9.999 -99.9 -99.99 -9.99
2019/12/13 05:30 CST    1.19   2.22    0  332    1  57.9  64.8 1014.2 -9.9 -9.999 -99.9 -99.99 -9.99
2019/12/13 05:36 CST    1.19   2.23    2  205    3  59.0  64.8 1014.2 -9.9 -9.999 -99.9 -99.99 -9.99
2019/12/13 05:42 CST    1.18   2.26    2  190    3  59.0  64.8 1014.3 -9.9 -9.999 -99.9 -99.99 -9.99
2019/12/13 05:48 CST    1.18   2.23    2  209    3  59.4  64.8 1014.4 -9.9 -9.999 -99.9 -99.99 -9.99
2019/12/13 05:54 CST    1.18   2.28    0  275    3  58.8  64.8 1014.3 -9.9 -9.999 -99.9 -99.99 -9.99
2019/12/13 06:00 CST    1.18   2.22    0  321    1  58.5  64.8 1014.3 -9.9 -9.999 -99.9 -99.99 -9.99
2019/12/13 06:06 CST    1.17   2.19    0  321    0  58.6  64.8 1014.5 -9.9 -9.999 -99.9 -99.99 -9.99
2019/12/13 06:12 CST    1.17   2.21    1  315    2  58.8  64.6 1014.7 -9.9 -9.999 -99.9 -99.99 -9.99
2019/12/13 06:18 CST    1.17   2.21    2  283    2  58.6  64.6 1014.8 -9.9 -9.999 -99.9 -99.99 -9.99
2019/12/13 06:24 CST    1.16   2.17    2  297    3  58.5  64.8 1014.8 -9.9 -9.999 -99.9 -99.99 -9.99
2019/12/13 06:30 CST    1.16   2.16    2  295    3  58.3  64.8 1014.7 -9.9 -9.999 -99.9 -99.99 -9.99
2019/12/13 06:36 CST    1.15   2.15    1  313    2  58.1  64.8 1014.5 -9.9 -9.999 -99.9 -99.99 -9.99
2019/12/13 06:42 CST    1.14   2.11    1  280    1  57.9  64.8 1014.5 -9.9 -9.999 -99.9 -99.99 -9.99
2019/12/13 06:48 CST    1.14   2.11    2  297    2  57.9  64.8 1014.6 -9.9 -9.999 -99.9 -99.99 -9.99
2019/12/13 06:54 CST    1.13   2.08    1  322    3  57.9  64.8 1014.7 -9.9 -9.999 -99.9 -99.99 -9.99
2019/12/13 07:00 CST    1.12   2.08    2  302    3  57.9  64.8 1014.7 -9.9 -9.999 -99.9 -99.99 -9.99
2019/12/13 07:06 CST    1.11   2.06    1  338    2  57.7  64.8 1014.7 -9.9 -9.999 -99.9 -99.99 -9.99
2019/12/13 07:12 CST    1.10   2.03    0   67    2  57.9  64.8 1014.5 -9.9 -9.999 -99.9 -99.99 -9.99
2019/12/13 07:18 CST    1.09   2.02    1  112    2  58.5  64.8 1014.5 -9.9 -9.999 -99.9 -99.99 -9.99
2019/12/13 07:24 CST    1.08   1.98    1  353    2  58.3  64.8 1014.6 -9.9 -9.999 -99.9 -99.99 -9.99
2019/12/13 07:30 CST    1.06   1.96    2    5    3  57.9  64.8 1014.7 -9.9 -9.999 -99.9 -99.99 -9.99
2019/12/13 07:36 CST    1.05   1.93    2   62    3  58.1  64.8 1014.6 -9.9 -9.999 -99.9 -99.99 -9.99
2019/12/13 07:42 CST    1.04   1.89    1   60    2  57.9  64.8 1014.7 -9.9 -9.999 -99.9 -99.99 -9.99
2019/12/13 07:48 CST    1.02   1.88    1  322    2  58.1  64.8 1014.6 -9.9 -9.999 -99.9 -99.99 -9.99
2019/12/13 07:54 CST    1.01   1.85    2   44    3  57.9  64.8 1014.6 -9.9 -9.999 -99.9 -99.99 -9.99
2019/12/13 08:00 CST    0.99   1.82    2  340    2  58.3  64.8 1014.8 -9.9 -9.999 -99.9 -99.99 -9.99
2019/12/13 08:06 CST    0.97   1.82    1   51    2  58.6  64.8 1014.8 -9.9 -9.999 -99.9 -99.99 -9.99
2019/12/13 08:12 CST    0.96   1.80    2  295    2  58.6  64.9 1014.9 -9.9 -9.999 -99.9 -99.99 -9.99
2019/12/13 08:18 CST    0.94   1.79    2   73    3  58.6  64.9 1014.7 -9.9 -9.999 -99.9 -99.99 -9.99
2019/12/13 08:24 CST    0.92   1.77    2  287    3  59.5  64.9 1014.7 -9.9 -9.999 -99.9 -99.99 -9.99
2019/12/13 08:30 CST    0.90   1.74    0  144    2  61.3  64.9 1014.6 -9.9 -9.999 -99.9 -99.99 -9.99
2019/12/13 08:36 CST    0.88   1.73    2  302    3  60.6  64.9 1014.6 -9.9 -9.999 -99.9 -99.99 -9.99
2019/12/13 08:42 CST    0.86   1.71    1  219    2  62.1  64.9 1014.6 -9.9 -9.999 -99.9 -99.99 -9.99
2019/12/13 08:48 CST    0.83   1.67    1  220    1  62.6  64.9 1014.3 -9.9 -9.999 -99.9 -99.99 -9.99
2019/12/13 08:54 CST    0.81   1.66    2  207    3  62.4  64.9 1014.3 -9.9 -9.999 -99.9 -99.99 -9.99
2019/12/13 09:00 CST    0.79   1.65    1  199    3  63.0  64.9 1014.0 -9.9 -9.999 -99.9 -99.99 -9.99
2019/12/13 09:06 CST    0.76   1.61    2  201    3  63.0  64.9 1014.2 -9.9 -9.999 -99.9 -99.99 -9.99
2019/12/13 09:12 CST    0.74   1.60    1  205    3  63.3  64.9 1014.2 -9.9 -9.999 -99.9 -99.99 -9.99
2019/12/13 09:18 CST    0.71   1.59    3  194    7  63.1  64.9 1014.2 -9.9 -9.999 -99.9 -99.99 -9.99
2019/12/13 09:24 CST    0.69   1.58    5  173    7  63.1  64.9 1014.1 -9.9 -9.999 -99.9 -99.99 -9.99
2019/12/13 09:30 CST    0.66   1.54    2  194    6  63.9  64.9 1014.1 -9.9 -9.999 -99.9 -99.99 -9.99
2019/12/13 09:36 CST    0.63   1.51    4  203    7  63.7  64.9 1014.1 -9.9 -9.999 -99.9 -99.99 -9.99
2019/12/13 09:42 CST    0.60   1.50    3  201    7  64.4  64.9 1014.4 -9.9 -9.999 -99.9 -99.99 -9.99
2019/12/13 09:48 CST    0.57   1.48    3  223    7  64.9  64.9 1014.1 -9.9 -9.999 -99.9 -99.99 -9.99
2019/12/13 09:54 CST    0.54   1.45    7  206    9  65.1  64.9 1013.6 -9.9 -9.999 -99.9 -99.99 -9.99
2019/12/13 10:00 CST    0.51   1.43    1  209   10  66.6  64.9 1013.7 -9.9 -9.999 -99.9 -99.99 -9.99
2019/12/13 10:06 CST    0.48   1.41    3  250    7  66.9  64.9 1013.6 -9.9 -9.999 -99.9 -99.99 -9.99
2019/12/13 10:12 CST    0.44   1.39    4  218   10  66.7  64.9 1012.9 -9.9 -9.999 -99.9 -99.99 -9.99
2019/12/13 10:18 CST    0.41   1.36    5  254    7  67.1  64.9 1013.3 -9.9 -9.999 -99.9 -99.99 -9.99
2019/12/13 10:24 CST    0.38   1.34    3  250    8  67.3  64.9 1013.4 -9.9 -9.999 -99.9 -99.99 -9.99
2019/12/13 10:30 CST    0.34   1.31    4  251    7  67.5  64.9 1013.0 -9.9 -9.999 -99.9 -99.99 -9.99
2019/12/13 10:36 CST    0.31   1.29    4  229    8  68.0  64.9 1012.9 -9.9 -9.999 -99.9 -99.99 -9.99
2019/12/13 10:42 CST    0.27   1.24    3  241    7  68.0  64.9 1012.6 -9.9 -9.999 -99.9 -99.99 -9.99
2019/12/13 10:48 CST    0.24   1.24    6  256    9  68.0  64.9 1013.0 -9.9 -9.999 -99.9 -99.99 -9.99
2019/12/13 10:54 CST    0.21   1.18    6  259   10  67.8  64.9 1013.1 -9.9 -9.999 -99.9 -99.99 -9.99
2019/12/13 11:00 CST    0.17   1.14    8  258   12  67.8  64.9 1012.9 -9.9 -9.999 -99.9 -99.99 -9.99
2019/12/13 11:06 CST    0.14   1.18    8  256   11  67.3  65.3 1013.2 -9.9 -9.999 -99.9 -99.99 -9.99
2019/12/13 11:12 CST    0.10   1.11    5  257   10  68.0  65.3 1012.9 -9.9 -9.999 -99.9 -99.99 -9.99
2019/12/13 11:18 CST    0.07   1.04    8  257   12  68.9  65.3 1012.8 -9.9 -9.999 -99.9 -99.99 -9.99
2019/12/13 11:24 CST    0.04   1.11    6  266   11  69.4  65.3 1012.9 -9.9 -9.999 -99.9 -99.99 -9.99
2019/12/13 11:30 CST    0.00   1.08    6  251   11  69.3  65.3 1012.8 -9.9 -9.999 -99.9 -99.99 -9.99
2019/12/13 11:36 CST   -0.03   1.03    7  265   12  69.3  65.3 1012.6 -9.9 -9.999 -99.9 -99.99 -9.99
2019/12/13 11:42 CST   -0.06   0.99    7  259   10  69.1  65.5 1012.5 -9.9 -9.999 -99.9 -99.99 -9.99
2019/12/13 11:48 CST   -0.10   0.97    7  258   10  69.3  65.3 1012.5 -9.9 -9.999 -99.9 -99.99 -9.99
2019/12/13 11:54 CST   -0.13   0.96    8  266   13  68.9  65.3 1012.4 -9.9 -9.999 -99.9 -99.99 -9.99
2019/12/13 12:00 CST   -0.16   0.94    5  260   11  69.1  65.5 1012.1 -9.9 -9.999 -99.9 -99.99 -9.99
2019/12/13 12:06 CST   -0.19   0.92    4  254    7  70.2  65.5 1011.7 -9.9 -9.999 -99.9 -99.99 -9.99
2019/12/13 12:12 CST   -0.22   0.87    4  222    8  69.3  65.3 1011.6 -9.9 -9.999 -99.9 -99.99 -9.99
2019/12/13 12:18 CST   -0.25   0.85    5  263    8  70.2  65.3 1011.4 -9.9 -9.999 -99.9 -99.99 -9.99
2019/12/13 12:24 CST   -0.28   0.82    5  262   12  70.2  65.3 1011.1 -9.9 -9.999 -99.9 -99.99 -9.99
2019/12/13 12:30 CST   -0.31   0.75    4  256   10  70.9  65.3 1010.9 -9.9 -9.999 -99.9 -99.99 -9.99
2019/12/13 12:36 CST   -0.34   0.72    5  261   10  71.1  65.3 1010.7 -9.9 -9.999 -99.9 -99.99 -9.99
2019/12/13 12:42 CST   -0.36   0.69    4  258    8  70.9  65.3 1010.4 -9.9 -9.999 -99.9 -99.99 -9.99
2019/12/13 12:48 CST   -0.39   0.67    4  243    7  71.1  65.3 1010.1 -9.9 -9.999 -99.9 -99.99 -9.99
2019/12/13 12:54 CST   -0.41   0.64    5  260    7  71.6  65.3 1009.9 -9.9 -9.999 -99.9 -99.99 -9.99
2019/12/13 13:00 CST   -0.44   0.61    4  262    8  71.2  65.3 1010.0 -9.9 -9.999 -99.9 -99.99 -9.99
2019/12/13 13:06 CST   -0.46   0.59    5  259    8  71.8  65.3 1009.8 -9.9 -9.999 -99.9 -99.99 -9.99
2019/12/13 13:12 CST   -0.49   0.57    6  259   11  72.0  65.5 1009.7 -9.9 -9.999 -99.9 -99.99 -9.99
2019/12/13 13:18 CST   -0.51   0.56    4  218    9  71.1  65.5 1009.5 -9.9 -9.999 -99.9 -99.99 -9.99
2019/12/13 13:24 CST   -0.53   0.53    4  211   13  71.6  65.5 1009.2 -9.9 -9.999 -99.9 -99.99 -9.99
2019/12/13 13:30 CST   -0.55   0.51    5  258    8  72.7  65.5 1009.2 -9.9 -9.999 -99.9 -99.99 -9.99
2019/12/13 13:36 CST   -0.57   0.49    4  225   10  71.8  65.5 1009.2 -9.9 -9.999 -99.9 -99.99 -9.99
2019/12/13 13:42 CST   -0.59   0.47    2  212    9  72.0  65.5 1009.0 -9.9 -9.999 -99.9 -99.99 -9.99
2019/12/13 13:48 CST   -0.61   0.46    5  263    7  72.5  65.5 1008.7 -9.9 -9.999 -99.9 -99.99 -9.99
2019/12/13 13:54 CST   -0.62   0.46    5  254    9  72.3  65.7 1008.6 -9.9 -9.999 -99.9 -99.99 -9.99
2019/12/13 14:00 CST   -0.64   0.44    8  266   11  72.3  65.7 1008.4 -9.9 -9.999 -99.9 -99.99 -9.99
2019/12/13 14:06 CST   -0.65   0.44    4  256   10  72.7  65.7 1008.5 -9.9 -9.999 -99.9 -99.99 -9.99
2019/12/13 14:12 CST   -0.66   0.43    5  260    7  72.9  65.7 1008.6 -9.9 -9.999 -99.9 -99.99 -9.99
2019/12/13 14:18 CST   -0.67   0.42    4  244   10  73.0  65.7 1008.5 -9.9 -9.999 -99.9 -99.99 -9.99
2019/12/13 14:24 CST   -0.68   0.40    4  257    7  73.4  65.7 1008.4 -9.9 -9.999 -99.9 -99.99 -9.99
2019/12/13 14:30 CST   -0.69   0.38    5  261    9  73.0  65.8 1008.2 -9.9 -9.999 -99.9 -99.99 -9.99
2019/12/13 14:36 CST   -0.70   0.40   10  260   13  72.7  65.8 1008.3 -9.9 -9.999 -99.9 -99.99 -9.99
2019/12/13 14:42 CST   -0.70   0.39    7  251   15  72.9  65.8 1008.3 -9.9 -9.999 -99.9 -99.99 -9.99
2019/12/13 14:48 CST   -0.71   0.38    9  263   12  72.7  65.8 1008.2 -9.9 -9.999 -99.9 -99.99 -9.99
2019/12/13 14:54 CST   -0.71   0.38    8  259   13  72.7  65.8 1008.3 -9.9 -9.999 -99.9 -99.99 -9.99
2019/12/13 15:00 CST   -0.71   0.37    6  260   12  72.9  65.8 1008.1 -9.9 -9.999 -99.9 -99.99 -9.99
2019/12/13 15:06 CST   -0.71   0.37    4  255    7  72.7  65.8 1008.0 -9.9 -9.999 -99.9 -99.99 -9.99
2019/12/13 15:12 CST   -0.71   0.37    8  265   10  72.7  65.8 1008.1 -9.9 -9.999 -99.9 -99.99 -9.99
2019/12/13 15:18 CST   -0.71   0.35    6  251   12  73.2  65.8 1008.3 -9.9 -9.999 -99.9 -99.99 -9.99
2019/12/13 15:24 CST   -0.70   0.35    8  266   11  73.2  65.8 1008.3 -9.9 -9.999 -99.9 -99.99 -9.99
2019/12/13 15:30 CST   -0.70   0.34    7  259   11  73.0  65.8 1008.2 -9.9 -9.999 -99.9 -99.99 -9.99
2019/12/13 15:36 CST   -0.69   0.33    5  251    9  72.9  65.8 1008.1 -9.9 -9.999 -99.9 -99.99 -9.99
2019/12/13 15:42 CST   -0.69   0.34    6  256   12  72.9  65.8 1008.0 -9.9 -9.999 -99.9 -99.99 -9.99
2019/12/13 15:48 CST   -0.68   0.34    9  258   12  72.9  65.8 1008.1 -9.9 -9.999 -99.9 -99.99 -9.99
2019/12/13 15:54 CST   -0.67   0.32    6  258   11  73.2  65.8 1008.2 -9.9 -9.999 -99.9 -99.99 -9.99
2019/12/13 16:00 CST   -0.65   0.31    8  255   12  73.0  65.8 1008.2 -9.9 -9.999 -99.9 -99.99 -9.99
2019/12/13 16:06 CST   -0.64   0.31    9  256   12  72.9  65.8 1008.0 -9.9 -9.999 -99.9 -99.99 -9.99
2019/12/13 16:12 CST   -0.63   0.32    7  253   12  72.7  65.8 1007.9 -9.9 -9.999 -99.9 -99.99 -9.99
2019/12/13 16:18 CST   -0.61   0.32    8  259   11  73.0  65.8 1007.9 -9.9 -9.999 -99.9 -99.99 -9.99
2019/12/13 16:24 CST   -0.59   0.33    6  256   16  72.7  65.8 1007.8 -9.9 -9.999 -99.9 -99.99 -9.99
2019/12/13 16:30 CST   -0.57   0.35    8  261   12  72.7  65.8 1007.9 -9.9 -9.999 -99.9 -99.99 -9.99
2019/12/13 16:36 CST   -0.55   0.36    7  260   13  72.5  65.8 1008.1 -9.9 -9.999 -99.9 -99.99 -9.99
2019/12/13 16:42 CST   -0.53   0.38    8  258   13  72.3  65.8 1008.1 -9.9 -9.999 -99.9 -99.99 -9.99
2019/12/13 16:48 CST   -0.51   0.40    5  259    9  72.0  65.8 1008.2 -9.9 -9.999 -99.9 -99.99 -9.99
2019/12/13 16:54 CST   -0.48   0.41    6  263   13  71.8  65.8 1008.3 -9.9 -9.999 -99.9 -99.99 -9.99
2019/12/13 17:00 CST   -0.45   0.43    7  261   14  71.8  65.8 1008.3 -9.9 -9.999 -99.9 -99.99 -9.99
2019/12/13 17:06 CST   -0.43   0.45    6  258   12  71.6  65.8 1008.4 -9.9 -9.999 -99.9 -99.99 -9.99
2019/12/13 17:12 CST   -0.40   0.47    4  268    7  71.1  65.8 1008.5 -9.9 -9.999 -99.9 -99.99 -9.99
2019/12/13 17:18 CST   -0.36   0.50    4  261    8  70.9  65.8 1008.7 -9.9 -9.999 -99.9 -99.99 -9.99
2019/12/13 17:24 CST   -0.33   0.52    5  270    9  70.9  65.8 1008.8 -9.9 -9.999 -99.9 -99.99 -9.99
2019/12/13 17:30 CST   -0.30   0.52    5  269    8  70.7  65.8 1008.8 -9.9 -9.999 -99.9 -99.99 -9.99
2019/12/13 17:36 CST   -0.26   0.55    5  269    9  70.7  65.8 1008.6 -9.9 -9.999 -99.9 -99.99 -9.99
2019/12/13 17:42 CST   -0.22   0.58    3  268    8  70.3  65.7 1008.6 -9.9 -9.999 -99.9 -99.99 -9.99
2019/12/13 17:48 CST   -0.19   0.61    5  269    9  70.3  65.7 1008.6 -9.9 -9.999 -99.9 -99.99 -9.99
2019/12/13 17:54 CST   -0.15   0.65    4  283    8  69.8  65.7 1008.8 -9.9 -9.999 -99.9 -99.99 -9.99
2019/12/13 18:00 CST   -0.11   0.71    4  293    6  70.0  65.7 1008.8 -9.9 -9.999 -99.9 -99.99 -9.99
2019/12/13 18:06 CST   -0.06   0.77    5  295    7  69.8  65.7 1008.8 -9.9 -9.999 -99.9 -99.99 -9.99
2019/12/13 18:12 CST   -0.02   0.81    4  287    7  69.4  65.7 1008.9 -9.9 -9.999 -99.9 -99.99 -9.99
2019/12/13 18:18 CST    0.02   0.88    4  294    7  69.3  65.7 1009.0 -9.9 -9.999 -99.9 -99.99 -9.99
2019/12/13 18:24 CST    0.07   0.94    5  289    6  69.1  65.7 1009.0 -9.9 -9.999 -99.9 -99.99 -9.99
2019/12/13 18:30 CST    0.11   0.98    3  277    5  68.5  65.8 1009.0 -9.9 -9.999 -99.9 -99.99 -9.99
2019/12/13 18:36 CST    0.15   1.01    2  269    5  68.4  65.8 1009.0 -9.9 -9.999 -99.9 -99.99 -9.99
2019/12/13 18:42 CST    0.20   1.06    2  278    3  68.0  65.8 1009.2 -9.9 -9.999 -99.9 -99.99 -9.99
2019/12/13 18:48 CST    0.24   1.11    2  287    4  67.8  65.8 1009.3 -9.9 -9.999 -99.9 -99.99 -9.99
2019/12/13 18:54 CST    0.29   1.15    2  285    4  67.6  65.8 1009.3 -9.9 -9.999 -99.9 -99.99 -9.99
2019/12/13 19:00 CST    0.33   1.19    1  299    2  66.7  65.8 1009.4 -9.9 -9.999 -99.9 -99.99 -9.99
2019/12/13 19:06 CST    0.38   1.23    1  296    2  66.7  65.8 1009.5 -9.9 -9.999 -99.9 -99.99 -9.99
2019/12/13 19:12 CST    0.42   1.27    1  298    2  66.7  65.8 1009.6 -9.9 -9.999 -99.9 -99.99 -9.99
2019/12/13 19:18 CST    0.47   1.31    2  313    2  66.2  65.8 1009.5 -9.9 -9.999 -99.9 -99.99 -9.99
2019/12/13 19:24 CST    0.51   1.36    1  332    2  66.0  65.8 1009.5 -9.9 -9.999 -99.9 -99.99 -9.99
2019/12/13 19:30 CST    0.56   1.38    1  307    1  65.8  65.8 1009.5 -9.9 -9.999 -99.9 -99.99 -9.99
2019/12/13 19:36 CST    0.60   1.41    0  289    1  65.7  65.8 1009.6 -9.9 -9.999 -99.9 -99.99 -9.99
2019/12/13 19:42 CST    0.64   1.45    0  310    1  65.1  65.8 1009.5 -9.9 -9.999 -99.9 -99.99 -9.99
2019/12/13 19:48 CST    0.69   1.47    1  323    1  65.3  65.8 1009.6 -9.9 -9.999 -99.9 -99.99 -9.99
2019/12/13 19:54 CST    0.73   1.51    1  274    2  65.1  65.8 1009.9 -9.9 -9.999 -99.9 -99.99 -9.99
2019/12/13 20:00 CST    0.77   1.59    1  279    2  65.1  65.8 1010.1 -9.9 -9.999 -99.9 -99.99 -9.99
2019/12/13 20:06 CST    0.81   1.61    2  270    3  65.5  65.8 1010.1 -9.9 -9.999 -99.9 -99.99 -9.99
2019/12/13 20:12 CST    0.85   1.62    1  267    2  65.1  65.8 1010.0 -9.9 -9.999 -99.9 -99.99 -9.99
2019/12/13 20:18 CST    0.89   1.62    2  265    3  65.1  65.8 1010.1 -9.9 -9.999 -99.9 -99.99 -9.99
2019/12/13 20:24 CST    0.93   1.68    1  275    3  64.8  65.8 1010.1 -9.9 -9.999 -99.9 -99.99 -9.99
2019/12/13 20:30 CST    0.97   1.74    2  260    3  64.8  65.8 1010.2 -9.9 -9.999 -99.9 -99.99 -9.99
2019/12/13 20:36 CST    1.00   1.77    1  283    3  64.2  65.8 1010.2 -9.9 -9.999 -99.9 -99.99 -9.99
2019/12/13 20:42 CST    1.04   1.84    1  288    1  63.9  65.8 1010.1 -9.9 -9.999 -99.9 -99.99 -9.99
2019/12/13 20:48 CST    1.07   1.87    0  309    1  63.3  65.8 1010.4 -9.9 -9.999 -99.9 -99.99 -9.99
2019/12/13 20:54 CST    1.11   1.93    0  265    1  63.5  65.8 1010.4 -9.9 -9.999 -99.9 -99.99 -9.99
2019/12/13 21:00 CST    1.14   1.97    1  285    1  63.1  65.8 1010.5 -9.9 -9.999 -99.9 -99.99 -9.99
2019/12/13 21:06 CST    1.17 -99.99 -999 -999 -999 -99.9 -99.9 -999.9 -9.9 -9.999 -99.9 -99.99 -9.99
2019/12/13 21:12 CST    1.21 -99.99 -999 -999 -999 -99.9 -99.9 -999.9 -9.9 -9.999 -99.9 -99.99 -9.99